<?xml version="1.0" encoding="UTF-8" standalone="no" ?>
<gpx xmlns="http://www.topografix.com/GPX/1/1" xmlns:xsi="http://www.w3.org/2001/XMLSchema-instance" xsi:schemaLocation="http://www.topografix.com/GPX/1/1 http://www.topografix.com/GPX/1/1/gpx.xsd" version="1.1" creator="VisuGPX - https://www.visugpx.com">
  <metadata>
    <name>Cap de la Dosse</name>
  </metadata>
  <trk>
    <name><![CDATA[Tracé actuel: 28 MAR 2021 13:58]]></name>
    <trkseg>
      <trkpt lat="42.84057" lon="1.48519">
        <ele>1018.17</ele>
        <time>2021-03-30T07:05:10Z</time>
      </trkpt>
      <trkpt lat="42.84038" lon="1.48498">
        <ele>1036.44</ele>
        <time>2021-03-30T07:05:40Z</time>
      </trkpt>
      <trkpt lat="42.84015" lon="1.48467">
        <ele>1040.28</ele>
        <time>2021-03-30T07:06:09Z</time>
      </trkpt>
      <trkpt lat="42.84" lon="1.48425">
        <ele>1042.69</ele>
        <time>2021-03-30T07:06:40Z</time>
      </trkpt>
      <trkpt lat="42.83996" lon="1.4837">
        <ele>1044.13</ele>
        <time>2021-03-30T07:07:09Z</time>
      </trkpt>
      <trkpt lat="42.83988" lon="1.48324">
        <ele>1046.05</ele>
        <time>2021-03-30T07:07:39Z</time>
      </trkpt>
      <trkpt lat="42.83979" lon="1.4827">
        <ele>1047.01</ele>
        <time>2021-03-30T07:08:09Z</time>
      </trkpt>
      <trkpt lat="42.83973" lon="1.48219">
        <ele>1047.49</ele>
        <time>2021-03-30T07:08:39Z</time>
      </trkpt>
      <trkpt lat="42.83972" lon="1.4817">
        <ele>1047.97</ele>
        <time>2021-03-30T07:09:09Z</time>
      </trkpt>
      <trkpt lat="42.83957" lon="1.48126">
        <ele>1050.38</ele>
        <time>2021-03-30T07:09:39Z</time>
      </trkpt>
      <trkpt lat="42.83953" lon="1.48077">
        <ele>1052.78</ele>
        <time>2021-03-30T07:10:09Z</time>
      </trkpt>
      <trkpt lat="42.83949" lon="1.48026">
        <ele>1054.7</ele>
        <time>2021-03-30T07:10:39Z</time>
      </trkpt>
      <trkpt lat="42.83937" lon="1.47972">
        <ele>1057.11</ele>
        <time>2021-03-30T07:11:09Z</time>
      </trkpt>
      <trkpt lat="42.83929" lon="1.47934">
        <ele>1061.91</ele>
        <time>2021-03-30T07:11:39Z</time>
      </trkpt>
      <trkpt lat="42.83918" lon="1.47893">
        <ele>1065.76</ele>
        <time>2021-03-30T07:12:09Z</time>
      </trkpt>
      <trkpt lat="42.83899" lon="1.47852">
        <ele>1069.6</ele>
        <time>2021-03-30T07:12:39Z</time>
      </trkpt>
      <trkpt lat="42.83886" lon="1.47808">
        <ele>1072.49</ele>
        <time>2021-03-30T07:13:09Z</time>
      </trkpt>
      <trkpt lat="42.83879" lon="1.47758">
        <ele>1074.41</ele>
        <time>2021-03-30T07:13:39Z</time>
      </trkpt>
      <trkpt lat="42.83884" lon="1.47707">
        <ele>1075.37</ele>
        <time>2021-03-30T07:14:09Z</time>
      </trkpt>
      <trkpt lat="42.83893" lon="1.47659">
        <ele>1075.37</ele>
        <time>2021-03-30T07:14:39Z</time>
      </trkpt>
      <trkpt lat="42.8389" lon="1.47609">
        <ele>1073.93</ele>
        <time>2021-03-30T07:15:09Z</time>
      </trkpt>
      <trkpt lat="42.83881" lon="1.4757">
        <ele>1075.85</ele>
        <time>2021-03-30T07:15:40Z</time>
      </trkpt>
      <trkpt lat="42.8388" lon="1.47536">
        <ele>1081.14</ele>
        <time>2021-03-30T07:16:10Z</time>
      </trkpt>
      <trkpt lat="42.8388" lon="1.47501">
        <ele>1084.99</ele>
        <time>2021-03-30T07:16:39Z</time>
      </trkpt>
      <trkpt lat="42.83874" lon="1.47455">
        <ele>1089.79</ele>
        <time>2021-03-30T07:17:10Z</time>
      </trkpt>
      <trkpt lat="42.83877" lon="1.47415">
        <ele>1095.56</ele>
        <time>2021-03-30T07:17:40Z</time>
      </trkpt>
      <trkpt lat="42.83859" lon="1.47385">
        <ele>1100.37</ele>
        <time>2021-03-30T07:18:10Z</time>
      </trkpt>
      <trkpt lat="42.83846" lon="1.47349">
        <ele>1102.77</ele>
        <time>2021-03-30T07:18:40Z</time>
      </trkpt>
      <trkpt lat="42.83843" lon="1.47298">
        <ele>1105.65</ele>
        <time>2021-03-30T07:19:10Z</time>
      </trkpt>
      <trkpt lat="42.83865" lon="1.47248">
        <ele>1106.61</ele>
        <time>2021-03-30T07:19:40Z</time>
      </trkpt>
      <trkpt lat="42.83875" lon="1.47208">
        <ele>1110.46</ele>
        <time>2021-03-30T07:20:10Z</time>
      </trkpt>
      <trkpt lat="42.83878" lon="1.47164">
        <ele>1114.79</ele>
        <time>2021-03-30T07:20:40Z</time>
      </trkpt>
      <trkpt lat="42.83867" lon="1.4712">
        <ele>1117.19</ele>
        <time>2021-03-30T07:21:10Z</time>
      </trkpt>
      <trkpt lat="42.83862" lon="1.47073">
        <ele>1122.48</ele>
        <time>2021-03-30T07:21:40Z</time>
      </trkpt>
      <trkpt lat="42.83864" lon="1.47038">
        <ele>1127.28</ele>
        <time>2021-03-30T07:22:10Z</time>
      </trkpt>
      <trkpt lat="42.8388" lon="1.47006">
        <ele>1131.13</ele>
        <time>2021-03-30T07:22:40Z</time>
      </trkpt>
      <trkpt lat="42.83884" lon="1.46971">
        <ele>1136.42</ele>
        <time>2021-03-30T07:23:09Z</time>
      </trkpt>
      <trkpt lat="42.83887" lon="1.46939">
        <ele>1141.22</ele>
        <time>2021-03-30T07:23:39Z</time>
      </trkpt>
      <trkpt lat="42.83863" lon="1.46888">
        <ele>1143.14</ele>
        <time>2021-03-30T07:24:09Z</time>
      </trkpt>
      <trkpt lat="42.83876" lon="1.46848">
        <ele>1146.99</ele>
        <time>2021-03-30T07:24:39Z</time>
      </trkpt>
      <trkpt lat="42.83874" lon="1.46807">
        <ele>1150.84</ele>
        <time>2021-03-30T07:25:09Z</time>
      </trkpt>
      <trkpt lat="42.83885" lon="1.46759">
        <ele>1154.68</ele>
        <time>2021-03-30T07:25:40Z</time>
      </trkpt>
      <trkpt lat="42.8389" lon="1.46722">
        <ele>1159.49</ele>
        <time>2021-03-30T07:26:10Z</time>
      </trkpt>
      <trkpt lat="42.83897" lon="1.46684">
        <ele>1163.81</ele>
        <time>2021-03-30T07:26:39Z</time>
      </trkpt>
      <trkpt lat="42.8391" lon="1.46669">
        <ele>1164.29</ele>
        <time>2021-03-30T07:27:10Z</time>
      </trkpt>
      <trkpt lat="42.83914" lon="1.46669">
        <ele>1163.33</ele>
        <time>2021-03-30T07:27:40Z</time>
      </trkpt>
      <trkpt lat="42.83914" lon="1.46669">
        <ele>1164.77</ele>
        <time>2021-03-30T07:28:10Z</time>
      </trkpt>
      <trkpt lat="42.83914" lon="1.46665">
        <ele>1164.77</ele>
        <time>2021-03-30T07:28:39Z</time>
      </trkpt>
      <trkpt lat="42.83916" lon="1.46632">
        <ele>1168.14</ele>
        <time>2021-03-30T07:29:09Z</time>
      </trkpt>
      <trkpt lat="42.83908" lon="1.46589">
        <ele>1171.98</ele>
        <time>2021-03-30T07:29:40Z</time>
      </trkpt>
      <trkpt lat="42.83896" lon="1.46556">
        <ele>1174.39</ele>
        <time>2021-03-30T07:30:10Z</time>
      </trkpt>
      <trkpt lat="42.83889" lon="1.46511">
        <ele>1175.83</ele>
        <time>2021-03-30T07:30:40Z</time>
      </trkpt>
      <trkpt lat="42.83886" lon="1.46488">
        <ele>1176.79</ele>
        <time>2021-03-30T07:31:10Z</time>
      </trkpt>
      <trkpt lat="42.83876" lon="1.46438">
        <ele>1178.23</ele>
        <time>2021-03-30T07:31:40Z</time>
      </trkpt>
      <trkpt lat="42.83885" lon="1.46392">
        <ele>1180.16</ele>
        <time>2021-03-30T07:32:10Z</time>
      </trkpt>
      <trkpt lat="42.83892" lon="1.46345">
        <ele>1181.6</ele>
        <time>2021-03-30T07:32:40Z</time>
      </trkpt>
      <trkpt lat="42.83904" lon="1.46333">
        <ele>1182.56</ele>
        <time>2021-03-30T07:33:10Z</time>
      </trkpt>
      <trkpt lat="42.83918" lon="1.46341">
        <ele>1183.04</ele>
        <time>2021-03-30T07:33:40Z</time>
      </trkpt>
      <trkpt lat="42.83901" lon="1.46332">
        <ele>1183.04</ele>
        <time>2021-03-30T07:34:10Z</time>
      </trkpt>
      <trkpt lat="42.83884" lon="1.46285">
        <ele>1182.08</ele>
        <time>2021-03-30T07:34:40Z</time>
      </trkpt>
      <trkpt lat="42.83897" lon="1.46243">
        <ele>1184</ele>
        <time>2021-03-30T07:35:10Z</time>
      </trkpt>
      <trkpt lat="42.83903" lon="1.46205">
        <ele>1187.37</ele>
        <time>2021-03-30T07:35:40Z</time>
      </trkpt>
      <trkpt lat="42.83896" lon="1.4617">
        <ele>1188.33</ele>
        <time>2021-03-30T07:36:10Z</time>
      </trkpt>
      <trkpt lat="42.83911" lon="1.46184">
        <ele>1190.25</ele>
        <time>2021-03-30T07:36:40Z</time>
      </trkpt>
      <trkpt lat="42.83906" lon="1.46182">
        <ele>1190.73</ele>
        <time>2021-03-30T07:37:09Z</time>
      </trkpt>
      <trkpt lat="42.83902" lon="1.46178">
        <ele>1188.33</ele>
        <time>2021-03-30T07:37:39Z</time>
      </trkpt>
      <trkpt lat="42.8389" lon="1.46169">
        <ele>1186.88</ele>
        <time>2021-03-30T07:38:10Z</time>
      </trkpt>
      <trkpt lat="42.8389" lon="1.46139">
        <ele>1189.29</ele>
        <time>2021-03-30T07:38:40Z</time>
      </trkpt>
      <trkpt lat="42.83884" lon="1.46095">
        <ele>1191.21</ele>
        <time>2021-03-30T07:39:10Z</time>
      </trkpt>
      <trkpt lat="42.83885" lon="1.46058">
        <ele>1193.61</ele>
        <time>2021-03-30T07:39:40Z</time>
      </trkpt>
      <trkpt lat="42.83882" lon="1.46022">
        <ele>1195.54</ele>
        <time>2021-03-30T07:40:10Z</time>
      </trkpt>
      <trkpt lat="42.8389" lon="1.45981">
        <ele>1198.9</ele>
        <time>2021-03-30T07:40:40Z</time>
      </trkpt>
      <trkpt lat="42.83891" lon="1.45944">
        <ele>1200.82</ele>
        <time>2021-03-30T07:41:10Z</time>
      </trkpt>
      <trkpt lat="42.83896" lon="1.45904">
        <ele>1203.23</ele>
        <time>2021-03-30T07:41:40Z</time>
      </trkpt>
      <trkpt lat="42.83889" lon="1.45869">
        <ele>1207.55</ele>
        <time>2021-03-30T07:42:10Z</time>
      </trkpt>
      <trkpt lat="42.8389" lon="1.45865">
        <ele>1208.03</ele>
        <time>2021-03-30T07:42:40Z</time>
      </trkpt>
      <trkpt lat="42.83889" lon="1.45852">
        <ele>1210.44</ele>
        <time>2021-03-30T07:43:10Z</time>
      </trkpt>
      <trkpt lat="42.83885" lon="1.45814">
        <ele>1215.24</ele>
        <time>2021-03-30T07:43:40Z</time>
      </trkpt>
      <trkpt lat="42.8388" lon="1.45776">
        <ele>1220.05</ele>
        <time>2021-03-30T07:44:10Z</time>
      </trkpt>
      <trkpt lat="42.83882" lon="1.45748">
        <ele>1224.86</ele>
        <time>2021-03-30T07:44:40Z</time>
      </trkpt>
      <trkpt lat="42.83885" lon="1.45719">
        <ele>1229.66</ele>
        <time>2021-03-30T07:45:10Z</time>
      </trkpt>
      <trkpt lat="42.83885" lon="1.45693">
        <ele>1234.95</ele>
        <time>2021-03-30T07:45:40Z</time>
      </trkpt>
      <trkpt lat="42.83882" lon="1.45681">
        <ele>1240.72</ele>
        <time>2021-03-30T07:46:10Z</time>
      </trkpt>
      <trkpt lat="42.83883" lon="1.45664">
        <ele>1246.49</ele>
        <time>2021-03-30T07:46:40Z</time>
      </trkpt>
      <trkpt lat="42.83883" lon="1.45646">
        <ele>1251.29</ele>
        <time>2021-03-30T07:47:10Z</time>
      </trkpt>
      <trkpt lat="42.83875" lon="1.45628">
        <ele>1255.62</ele>
        <time>2021-03-30T07:47:39Z</time>
      </trkpt>
      <trkpt lat="42.83879" lon="1.45596">
        <ele>1260.91</ele>
        <time>2021-03-30T07:48:10Z</time>
      </trkpt>
      <trkpt lat="42.83887" lon="1.45571">
        <ele>1266.67</ele>
        <time>2021-03-30T07:48:40Z</time>
      </trkpt>
      <trkpt lat="42.83894" lon="1.45542">
        <ele>1272.92</ele>
        <time>2021-03-30T07:49:10Z</time>
      </trkpt>
      <trkpt lat="42.83894" lon="1.45521">
        <ele>1278.21</ele>
        <time>2021-03-30T07:49:40Z</time>
      </trkpt>
      <trkpt lat="42.839" lon="1.45498">
        <ele>1284.46</ele>
        <time>2021-03-30T07:50:10Z</time>
      </trkpt>
      <trkpt lat="42.83919" lon="1.45481">
        <ele>1289.75</ele>
        <time>2021-03-30T07:50:40Z</time>
      </trkpt>
      <trkpt lat="42.83933" lon="1.45463">
        <ele>1295.51</ele>
        <time>2021-03-30T07:51:10Z</time>
      </trkpt>
      <trkpt lat="42.83936" lon="1.45457">
        <ele>1296.48</ele>
        <time>2021-03-30T07:51:40Z</time>
      </trkpt>
      <trkpt lat="42.83926" lon="1.4545">
        <ele>1299.84</ele>
        <time>2021-03-30T07:52:10Z</time>
      </trkpt>
      <trkpt lat="42.83938" lon="1.45468">
        <ele>1305.13</ele>
        <time>2021-03-30T07:52:40Z</time>
      </trkpt>
      <trkpt lat="42.8394" lon="1.45478">
        <ele>1310.41</ele>
        <time>2021-03-30T07:53:10Z</time>
      </trkpt>
      <trkpt lat="42.83951" lon="1.45476">
        <ele>1315.7</ele>
        <time>2021-03-30T07:53:40Z</time>
      </trkpt>
      <trkpt lat="42.83958" lon="1.45464">
        <ele>1321.47</ele>
        <time>2021-03-30T07:54:10Z</time>
      </trkpt>
      <trkpt lat="42.83962" lon="1.45436">
        <ele>1326.76</ele>
        <time>2021-03-30T07:54:40Z</time>
      </trkpt>
      <trkpt lat="42.83962" lon="1.45426">
        <ele>1328.68</ele>
        <time>2021-03-30T07:55:10Z</time>
      </trkpt>
      <trkpt lat="42.83962" lon="1.45424">
        <ele>1328.68</ele>
        <time>2021-03-30T07:55:40Z</time>
      </trkpt>
      <trkpt lat="42.83976" lon="1.45398">
        <ele>1333.97</ele>
        <time>2021-03-30T07:56:10Z</time>
      </trkpt>
      <trkpt lat="42.83989" lon="1.45365">
        <ele>1338.29</ele>
        <time>2021-03-30T07:56:40Z</time>
      </trkpt>
      <trkpt lat="42.84007" lon="1.45334">
        <ele>1340.22</ele>
        <time>2021-03-30T07:57:10Z</time>
      </trkpt>
      <trkpt lat="42.84016" lon="1.45303">
        <ele>1345.02</ele>
        <time>2021-03-30T07:57:40Z</time>
      </trkpt>
      <trkpt lat="42.84011" lon="1.45276">
        <ele>1349.35</ele>
        <time>2021-03-30T07:58:10Z</time>
      </trkpt>
      <trkpt lat="42.84019" lon="1.45253">
        <ele>1354.63</ele>
        <time>2021-03-30T07:58:39Z</time>
      </trkpt>
      <trkpt lat="42.84018" lon="1.45221">
        <ele>1358.96</ele>
        <time>2021-03-30T07:59:10Z</time>
      </trkpt>
      <trkpt lat="42.84027" lon="1.45201">
        <ele>1363.77</ele>
        <time>2021-03-30T07:59:40Z</time>
      </trkpt>
      <trkpt lat="42.84045" lon="1.45205">
        <ele>1368.09</ele>
        <time>2021-03-30T08:00:10Z</time>
      </trkpt>
      <trkpt lat="42.84056" lon="1.45202">
        <ele>1372.9</ele>
        <time>2021-03-30T08:00:40Z</time>
      </trkpt>
      <trkpt lat="42.84075" lon="1.45196">
        <ele>1378.19</ele>
        <time>2021-03-30T08:01:10Z</time>
      </trkpt>
      <trkpt lat="42.84096" lon="1.45199">
        <ele>1383.47</ele>
        <time>2021-03-30T08:01:40Z</time>
      </trkpt>
      <trkpt lat="42.84108" lon="1.45211">
        <ele>1388.28</ele>
        <time>2021-03-30T08:02:10Z</time>
      </trkpt>
      <trkpt lat="42.84135" lon="1.452">
        <ele>1394.05</ele>
        <time>2021-03-30T08:02:40Z</time>
      </trkpt>
      <trkpt lat="42.84155" lon="1.45185">
        <ele>1397.41</ele>
        <time>2021-03-30T08:03:10Z</time>
      </trkpt>
      <trkpt lat="42.84172" lon="1.45174">
        <ele>1401.74</ele>
        <time>2021-03-30T08:03:40Z</time>
      </trkpt>
      <trkpt lat="42.84196" lon="1.45178">
        <ele>1406.07</ele>
        <time>2021-03-30T08:04:10Z</time>
      </trkpt>
      <trkpt lat="42.84207" lon="1.45174">
        <ele>1408.47</ele>
        <time>2021-03-30T08:04:40Z</time>
      </trkpt>
      <trkpt lat="42.84218" lon="1.45169">
        <ele>1411.83</ele>
        <time>2021-03-30T08:05:10Z</time>
      </trkpt>
      <trkpt lat="42.84224" lon="1.45166">
        <ele>1416.64</ele>
        <time>2021-03-30T08:05:40Z</time>
      </trkpt>
      <trkpt lat="42.8424" lon="1.45166">
        <ele>1422.89</ele>
        <time>2021-03-30T08:06:09Z</time>
      </trkpt>
      <trkpt lat="42.8425" lon="1.45166">
        <ele>1425.29</ele>
        <time>2021-03-30T08:06:40Z</time>
      </trkpt>
      <trkpt lat="42.84263" lon="1.45168">
        <ele>1429.62</ele>
        <time>2021-03-30T08:07:10Z</time>
      </trkpt>
      <trkpt lat="42.84298" lon="1.45203">
        <ele>1431.06</ele>
        <time>2021-03-30T08:07:40Z</time>
      </trkpt>
      <trkpt lat="42.84313" lon="1.45231">
        <ele>1433.46</ele>
        <time>2021-03-30T08:08:10Z</time>
      </trkpt>
      <trkpt lat="42.84311" lon="1.45242">
        <ele>1434.42</ele>
        <time>2021-03-30T08:08:40Z</time>
      </trkpt>
      <trkpt lat="42.84315" lon="1.45249">
        <ele>1434.42</ele>
        <time>2021-03-30T08:09:09Z</time>
      </trkpt>
      <trkpt lat="42.84317" lon="1.45253">
        <ele>1434.42</ele>
        <time>2021-03-30T08:09:39Z</time>
      </trkpt>
      <trkpt lat="42.84321" lon="1.45257">
        <ele>1434.42</ele>
        <time>2021-03-30T08:10:09Z</time>
      </trkpt>
      <trkpt lat="42.84322" lon="1.45263">
        <ele>1434.42</ele>
        <time>2021-03-30T08:10:39Z</time>
      </trkpt>
      <trkpt lat="42.84324" lon="1.45264">
        <ele>1434.42</ele>
        <time>2021-03-30T08:11:08Z</time>
      </trkpt>
      <trkpt lat="42.84324" lon="1.45264">
        <ele>1433.46</ele>
        <time>2021-03-30T08:11:39Z</time>
      </trkpt>
      <trkpt lat="42.84323" lon="1.45263">
        <ele>1434.42</ele>
        <time>2021-03-30T08:12:09Z</time>
      </trkpt>
      <trkpt lat="42.84324" lon="1.45263">
        <ele>1435.39</ele>
        <time>2021-03-30T08:12:39Z</time>
      </trkpt>
      <trkpt lat="42.84331" lon="1.45278">
        <ele>1432.98</ele>
        <time>2021-03-30T08:13:09Z</time>
      </trkpt>
      <trkpt lat="42.84347" lon="1.45285">
        <ele>1430.58</ele>
        <time>2021-03-30T08:13:39Z</time>
      </trkpt>
      <trkpt lat="42.84372" lon="1.45295">
        <ele>1429.14</ele>
        <time>2021-03-30T08:14:09Z</time>
      </trkpt>
      <trkpt lat="42.8439" lon="1.45307">
        <ele>1431.54</ele>
        <time>2021-03-30T08:14:38Z</time>
      </trkpt>
      <trkpt lat="42.8439" lon="1.45309">
        <ele>1432.02</ele>
        <time>2021-03-30T08:15:09Z</time>
      </trkpt>
      <trkpt lat="42.8439" lon="1.45308">
        <ele>1432.02</ele>
        <time>2021-03-30T08:15:39Z</time>
      </trkpt>
      <trkpt lat="42.84389" lon="1.45308">
        <ele>1432.02</ele>
        <time>2021-03-30T08:16:09Z</time>
      </trkpt>
      <trkpt lat="42.84397" lon="1.45303">
        <ele>1432.02</ele>
        <time>2021-03-30T08:16:39Z</time>
      </trkpt>
      <trkpt lat="42.84428" lon="1.45297">
        <ele>1433.46</ele>
        <time>2021-03-30T08:17:09Z</time>
      </trkpt>
      <trkpt lat="42.84451" lon="1.45284">
        <ele>1434.42</ele>
        <time>2021-03-30T08:17:39Z</time>
      </trkpt>
      <trkpt lat="42.84463" lon="1.45262">
        <ele>1433.46</ele>
        <time>2021-03-30T08:18:09Z</time>
      </trkpt>
      <trkpt lat="42.84476" lon="1.45254">
        <ele>1435.87</ele>
        <time>2021-03-30T08:18:38Z</time>
      </trkpt>
      <trkpt lat="42.84493" lon="1.45237">
        <ele>1437.79</ele>
        <time>2021-03-30T08:19:09Z</time>
      </trkpt>
      <trkpt lat="42.84518" lon="1.45223">
        <ele>1439.23</ele>
        <time>2021-03-30T08:19:39Z</time>
      </trkpt>
      <trkpt lat="42.84538" lon="1.45214">
        <ele>1441.15</ele>
        <time>2021-03-30T08:20:09Z</time>
      </trkpt>
      <trkpt lat="42.84545" lon="1.45207">
        <ele>1442.11</ele>
        <time>2021-03-30T08:20:39Z</time>
      </trkpt>
      <trkpt lat="42.84565" lon="1.45205">
        <ele>1444.52</ele>
        <time>2021-03-30T08:21:09Z</time>
      </trkpt>
      <trkpt lat="42.84565" lon="1.452">
        <ele>1444.52</ele>
        <time>2021-03-30T08:21:39Z</time>
      </trkpt>
      <trkpt lat="42.8456" lon="1.45195">
        <ele>1445.96</ele>
        <time>2021-03-30T08:22:09Z</time>
      </trkpt>
      <trkpt lat="42.84541" lon="1.45168">
        <ele>1446.92</ele>
        <time>2021-03-30T08:22:39Z</time>
      </trkpt>
      <trkpt lat="42.84543" lon="1.45144">
        <ele>1448.84</ele>
        <time>2021-03-30T08:23:09Z</time>
      </trkpt>
      <trkpt lat="42.84537" lon="1.4513">
        <ele>1451.73</ele>
        <time>2021-03-30T08:23:39Z</time>
      </trkpt>
      <trkpt lat="42.84546" lon="1.45111">
        <ele>1455.09</ele>
        <time>2021-03-30T08:24:09Z</time>
      </trkpt>
      <trkpt lat="42.84542" lon="1.45095">
        <ele>1458.46</ele>
        <time>2021-03-30T08:24:39Z</time>
      </trkpt>
      <trkpt lat="42.84558" lon="1.4507">
        <ele>1462.3</ele>
        <time>2021-03-30T08:25:09Z</time>
      </trkpt>
      <trkpt lat="42.84567" lon="1.4507">
        <ele>1464.23</ele>
        <time>2021-03-30T08:25:39Z</time>
      </trkpt>
      <trkpt lat="42.84577" lon="1.45058">
        <ele>1469.03</ele>
        <time>2021-03-30T08:26:09Z</time>
      </trkpt>
      <trkpt lat="42.84579" lon="1.45049">
        <ele>1473.84</ele>
        <time>2021-03-30T08:26:39Z</time>
      </trkpt>
      <trkpt lat="42.84584" lon="1.45043">
        <ele>1478.16</ele>
        <time>2021-03-30T08:27:09Z</time>
      </trkpt>
      <trkpt lat="42.84589" lon="1.45038">
        <ele>1480.09</ele>
        <time>2021-03-30T08:27:37Z</time>
      </trkpt>
      <trkpt lat="42.84595" lon="1.45029">
        <ele>1484.41</ele>
        <time>2021-03-30T08:28:09Z</time>
      </trkpt>
      <trkpt lat="42.84591" lon="1.4501">
        <ele>1488.74</ele>
        <time>2021-03-30T08:28:39Z</time>
      </trkpt>
      <trkpt lat="42.84597" lon="1.45">
        <ele>1493.06</ele>
        <time>2021-03-30T08:29:09Z</time>
      </trkpt>
      <trkpt lat="42.84605" lon="1.4499">
        <ele>1497.87</ele>
        <time>2021-03-30T08:29:39Z</time>
      </trkpt>
      <trkpt lat="42.84607" lon="1.44981">
        <ele>1502.68</ele>
        <time>2021-03-30T08:30:09Z</time>
      </trkpt>
      <trkpt lat="42.84612" lon="1.44954">
        <ele>1505.56</ele>
        <time>2021-03-30T08:30:39Z</time>
      </trkpt>
      <trkpt lat="42.8463" lon="1.44948">
        <ele>1509.41</ele>
        <time>2021-03-30T08:31:09Z</time>
      </trkpt>
      <trkpt lat="42.84645" lon="1.4494">
        <ele>1513.25</ele>
        <time>2021-03-30T08:31:38Z</time>
      </trkpt>
      <trkpt lat="42.84662" lon="1.44933">
        <ele>1516.14</ele>
        <time>2021-03-30T08:32:09Z</time>
      </trkpt>
      <trkpt lat="42.84673" lon="1.44927">
        <ele>1519.5</ele>
        <time>2021-03-30T08:32:38Z</time>
      </trkpt>
      <trkpt lat="42.84684" lon="1.44922">
        <ele>1523.35</ele>
        <time>2021-03-30T08:33:09Z</time>
      </trkpt>
      <trkpt lat="42.84693" lon="1.44914">
        <ele>1528.15</ele>
        <time>2021-03-30T08:33:39Z</time>
      </trkpt>
      <trkpt lat="42.84698" lon="1.44902">
        <ele>1532</ele>
        <time>2021-03-30T08:34:09Z</time>
      </trkpt>
      <trkpt lat="42.847" lon="1.44888">
        <ele>1536.8</ele>
        <time>2021-03-30T08:34:39Z</time>
      </trkpt>
      <trkpt lat="42.84699" lon="1.44877">
        <ele>1538.25</ele>
        <time>2021-03-30T08:35:09Z</time>
      </trkpt>
      <trkpt lat="42.84697" lon="1.44877">
        <ele>1538.25</ele>
        <time>2021-03-30T08:35:39Z</time>
      </trkpt>
      <trkpt lat="42.84697" lon="1.44876">
        <ele>1538.25</ele>
        <time>2021-03-30T08:36:09Z</time>
      </trkpt>
      <trkpt lat="42.84711" lon="1.44875">
        <ele>1542.09</ele>
        <time>2021-03-30T08:36:39Z</time>
      </trkpt>
      <trkpt lat="42.84711" lon="1.44875">
        <ele>1542.09</ele>
        <time>2021-03-30T08:37:09Z</time>
      </trkpt>
      <trkpt lat="42.84714" lon="1.44879">
        <ele>1542.57</ele>
        <time>2021-03-30T08:37:39Z</time>
      </trkpt>
      <trkpt lat="42.84712" lon="1.44878">
        <ele>1542.57</ele>
        <time>2021-03-30T08:38:08Z</time>
      </trkpt>
      <trkpt lat="42.84712" lon="1.4488">
        <ele>1543.05</ele>
        <time>2021-03-30T08:38:39Z</time>
      </trkpt>
      <trkpt lat="42.84711" lon="1.44879">
        <ele>1543.53</ele>
        <time>2021-03-30T08:39:09Z</time>
      </trkpt>
      <trkpt lat="42.84712" lon="1.44879">
        <ele>1543.53</ele>
        <time>2021-03-30T08:39:39Z</time>
      </trkpt>
      <trkpt lat="42.84712" lon="1.44879">
        <ele>1543.53</ele>
        <time>2021-03-30T08:40:09Z</time>
      </trkpt>
      <trkpt lat="42.84713" lon="1.44878">
        <ele>1543.53</ele>
        <time>2021-03-30T08:40:39Z</time>
      </trkpt>
      <trkpt lat="42.84722" lon="1.44871">
        <ele>1546.9</ele>
        <time>2021-03-30T08:41:09Z</time>
      </trkpt>
      <trkpt lat="42.84741" lon="1.44873">
        <ele>1549.3</ele>
        <time>2021-03-30T08:41:39Z</time>
      </trkpt>
      <trkpt lat="42.84762" lon="1.44879">
        <ele>1552.19</ele>
        <time>2021-03-30T08:42:09Z</time>
      </trkpt>
      <trkpt lat="42.84783" lon="1.44881">
        <ele>1554.11</ele>
        <time>2021-03-30T08:42:39Z</time>
      </trkpt>
      <trkpt lat="42.84805" lon="1.44878">
        <ele>1556.99</ele>
        <time>2021-03-30T08:43:09Z</time>
      </trkpt>
      <trkpt lat="42.84817" lon="1.44871">
        <ele>1560.36</ele>
        <time>2021-03-30T08:43:39Z</time>
      </trkpt>
      <trkpt lat="42.8482" lon="1.44868">
        <ele>1561.32</ele>
        <time>2021-03-30T08:44:09Z</time>
      </trkpt>
      <trkpt lat="42.84818" lon="1.44868">
        <ele>1561.32</ele>
        <time>2021-03-30T08:44:39Z</time>
      </trkpt>
      <trkpt lat="42.8482" lon="1.44846">
        <ele>1563.72</ele>
        <time>2021-03-30T08:45:09Z</time>
      </trkpt>
      <trkpt lat="42.84828" lon="1.44831">
        <ele>1566.61</ele>
        <time>2021-03-30T08:45:39Z</time>
      </trkpt>
      <trkpt lat="42.84828" lon="1.44831">
        <ele>1567.09</ele>
        <time>2021-03-30T08:46:09Z</time>
      </trkpt>
      <trkpt lat="42.84834" lon="1.44817">
        <ele>1568.53</ele>
        <time>2021-03-30T08:46:39Z</time>
      </trkpt>
      <trkpt lat="42.84831" lon="1.4479">
        <ele>1569.49</ele>
        <time>2021-03-30T08:47:08Z</time>
      </trkpt>
      <trkpt lat="42.84832" lon="1.4479">
        <ele>1569.49</ele>
        <time>2021-03-30T08:47:39Z</time>
      </trkpt>
      <trkpt lat="42.84831" lon="1.4479">
        <ele>1569.49</ele>
        <time>2021-03-30T08:48:09Z</time>
      </trkpt>
      <trkpt lat="42.84832" lon="1.4479">
        <ele>1569.49</ele>
        <time>2021-03-30T08:48:39Z</time>
      </trkpt>
      <trkpt lat="42.84832" lon="1.4479">
        <ele>1569.49</ele>
        <time>2021-03-30T08:49:09Z</time>
      </trkpt>
      <trkpt lat="42.84832" lon="1.4479">
        <ele>1569.49</ele>
        <time>2021-03-30T08:49:39Z</time>
      </trkpt>
      <trkpt lat="42.84831" lon="1.4479">
        <ele>1569.49</ele>
        <time>2021-03-30T08:50:09Z</time>
      </trkpt>
      <trkpt lat="42.84832" lon="1.44789">
        <ele>1569.49</ele>
        <time>2021-03-30T08:50:39Z</time>
      </trkpt>
      <trkpt lat="42.84832" lon="1.44789">
        <ele>1569.49</ele>
        <time>2021-03-30T08:51:09Z</time>
      </trkpt>
      <trkpt lat="42.84832" lon="1.44788">
        <ele>1569.49</ele>
        <time>2021-03-30T08:51:39Z</time>
      </trkpt>
      <trkpt lat="42.84843" lon="1.44785">
        <ele>1572.37</ele>
        <time>2021-03-30T08:52:09Z</time>
      </trkpt>
      <trkpt lat="42.84856" lon="1.44782">
        <ele>1575.26</ele>
        <time>2021-03-30T08:52:39Z</time>
      </trkpt>
      <trkpt lat="42.84878" lon="1.44788">
        <ele>1577.18</ele>
        <time>2021-03-30T08:53:09Z</time>
      </trkpt>
      <trkpt lat="42.84891" lon="1.44794">
        <ele>1581.03</ele>
        <time>2021-03-30T08:53:39Z</time>
      </trkpt>
      <trkpt lat="42.84907" lon="1.44801">
        <ele>1585.35</ele>
        <time>2021-03-30T08:54:09Z</time>
      </trkpt>
      <trkpt lat="42.84922" lon="1.44818">
        <ele>1588.24</ele>
        <time>2021-03-30T08:54:39Z</time>
      </trkpt>
      <trkpt lat="42.84939" lon="1.44828">
        <ele>1591.6</ele>
        <time>2021-03-30T08:55:09Z</time>
      </trkpt>
      <trkpt lat="42.84955" lon="1.44848">
        <ele>1592.56</ele>
        <time>2021-03-30T08:55:39Z</time>
      </trkpt>
      <trkpt lat="42.8497" lon="1.44861">
        <ele>1594.48</ele>
        <time>2021-03-30T08:56:09Z</time>
      </trkpt>
      <trkpt lat="42.84981" lon="1.44878">
        <ele>1594.96</ele>
        <time>2021-03-30T08:56:39Z</time>
      </trkpt>
      <trkpt lat="42.8499" lon="1.44888">
        <ele>1597.37</ele>
        <time>2021-03-30T08:57:09Z</time>
      </trkpt>
      <trkpt lat="42.84999" lon="1.44903">
        <ele>1599.77</ele>
        <time>2021-03-30T08:57:38Z</time>
      </trkpt>
      <trkpt lat="42.85006" lon="1.44907">
        <ele>1603.14</ele>
        <time>2021-03-30T08:58:09Z</time>
      </trkpt>
      <trkpt lat="42.85015" lon="1.44919">
        <ele>1604.58</ele>
        <time>2021-03-30T08:58:39Z</time>
      </trkpt>
      <trkpt lat="42.85025" lon="1.44925">
        <ele>1606.02</ele>
        <time>2021-03-30T08:59:08Z</time>
      </trkpt>
      <trkpt lat="42.85032" lon="1.44934">
        <ele>1606.5</ele>
        <time>2021-03-30T08:59:39Z</time>
      </trkpt>
      <trkpt lat="42.85042" lon="1.44948">
        <ele>1609.38</ele>
        <time>2021-03-30T09:00:09Z</time>
      </trkpt>
      <trkpt lat="42.85057" lon="1.44958">
        <ele>1611.31</ele>
        <time>2021-03-30T09:00:39Z</time>
      </trkpt>
      <trkpt lat="42.85066" lon="1.44965">
        <ele>1613.71</ele>
        <time>2021-03-30T09:01:09Z</time>
      </trkpt>
      <trkpt lat="42.85077" lon="1.44981">
        <ele>1616.59</ele>
        <time>2021-03-30T09:01:39Z</time>
      </trkpt>
      <trkpt lat="42.85089" lon="1.44988">
        <ele>1620.44</ele>
        <time>2021-03-30T09:02:09Z</time>
      </trkpt>
      <trkpt lat="42.85098" lon="1.45001">
        <ele>1623.8</ele>
        <time>2021-03-30T09:02:39Z</time>
      </trkpt>
      <trkpt lat="42.85097" lon="1.45003">
        <ele>1626.21</ele>
        <time>2021-03-30T09:03:09Z</time>
      </trkpt>
      <trkpt lat="42.85098" lon="1.45001">
        <ele>1626.21</ele>
        <time>2021-03-30T09:03:39Z</time>
      </trkpt>
      <trkpt lat="42.85098" lon="1.44999">
        <ele>1626.21</ele>
        <time>2021-03-30T09:04:09Z</time>
      </trkpt>
      <trkpt lat="42.85108" lon="1.4501">
        <ele>1627.65</ele>
        <time>2021-03-30T09:04:39Z</time>
      </trkpt>
      <trkpt lat="42.85123" lon="1.45025">
        <ele>1631.98</ele>
        <time>2021-03-30T09:05:09Z</time>
      </trkpt>
      <trkpt lat="42.85131" lon="1.45037">
        <ele>1636.3</ele>
        <time>2021-03-30T09:05:39Z</time>
      </trkpt>
      <trkpt lat="42.8514" lon="1.45043">
        <ele>1639.67</ele>
        <time>2021-03-30T09:06:09Z</time>
      </trkpt>
      <trkpt lat="42.85152" lon="1.45052">
        <ele>1643.99</ele>
        <time>2021-03-30T09:06:39Z</time>
      </trkpt>
      <trkpt lat="42.85156" lon="1.45053">
        <ele>1646.4</ele>
        <time>2021-03-30T09:07:09Z</time>
      </trkpt>
      <trkpt lat="42.85158" lon="1.45051">
        <ele>1646.4</ele>
        <time>2021-03-30T09:07:39Z</time>
      </trkpt>
      <trkpt lat="42.85162" lon="1.45052">
        <ele>1647.84</ele>
        <time>2021-03-30T09:08:09Z</time>
      </trkpt>
      <trkpt lat="42.85173" lon="1.45063">
        <ele>1649.28</ele>
        <time>2021-03-30T09:08:39Z</time>
      </trkpt>
      <trkpt lat="42.85186" lon="1.45081">
        <ele>1652.16</ele>
        <time>2021-03-30T09:09:09Z</time>
      </trkpt>
      <trkpt lat="42.85195" lon="1.45095">
        <ele>1655.53</ele>
        <time>2021-03-30T09:09:39Z</time>
      </trkpt>
      <trkpt lat="42.85204" lon="1.45112">
        <ele>1658.89</ele>
        <time>2021-03-30T09:10:09Z</time>
      </trkpt>
      <trkpt lat="42.85212" lon="1.45122">
        <ele>1661.3</ele>
        <time>2021-03-30T09:10:39Z</time>
      </trkpt>
      <trkpt lat="42.85215" lon="1.45137">
        <ele>1663.22</ele>
        <time>2021-03-30T09:11:09Z</time>
      </trkpt>
      <trkpt lat="42.85222" lon="1.45145">
        <ele>1668.02</ele>
        <time>2021-03-30T09:11:39Z</time>
      </trkpt>
      <trkpt lat="42.85224" lon="1.45149">
        <ele>1668.99</ele>
        <time>2021-03-30T09:12:09Z</time>
      </trkpt>
      <trkpt lat="42.85229" lon="1.45154">
        <ele>1670.91</ele>
        <time>2021-03-30T09:12:39Z</time>
      </trkpt>
      <trkpt lat="42.85231" lon="1.45156">
        <ele>1671.87</ele>
        <time>2021-03-30T09:13:09Z</time>
      </trkpt>
      <trkpt lat="42.85242" lon="1.45158">
        <ele>1674.75</ele>
        <time>2021-03-30T09:13:39Z</time>
      </trkpt>
      <trkpt lat="42.85252" lon="1.45153">
        <ele>1679.08</ele>
        <time>2021-03-30T09:14:09Z</time>
      </trkpt>
      <trkpt lat="42.8526" lon="1.45156">
        <ele>1681.96</ele>
        <time>2021-03-30T09:14:38Z</time>
      </trkpt>
      <trkpt lat="42.85267" lon="1.45148">
        <ele>1686.29</ele>
        <time>2021-03-30T09:15:09Z</time>
      </trkpt>
      <trkpt lat="42.85267" lon="1.45147">
        <ele>1687.25</ele>
        <time>2021-03-30T09:15:39Z</time>
      </trkpt>
      <trkpt lat="42.85267" lon="1.45146">
        <ele>1687.25</ele>
        <time>2021-03-30T09:16:08Z</time>
      </trkpt>
      <trkpt lat="42.85267" lon="1.45147">
        <ele>1687.25</ele>
        <time>2021-03-30T09:16:39Z</time>
      </trkpt>
      <trkpt lat="42.85269" lon="1.45144">
        <ele>1687.25</ele>
        <time>2021-03-30T09:17:09Z</time>
      </trkpt>
      <trkpt lat="42.85286" lon="1.45133">
        <ele>1690.62</ele>
        <time>2021-03-30T09:17:39Z</time>
      </trkpt>
      <trkpt lat="42.85296" lon="1.45133">
        <ele>1694.46</ele>
        <time>2021-03-30T09:18:09Z</time>
      </trkpt>
      <trkpt lat="42.85304" lon="1.45131">
        <ele>1697.34</ele>
        <time>2021-03-30T09:18:39Z</time>
      </trkpt>
      <trkpt lat="42.85309" lon="1.45131">
        <ele>1700.23</ele>
        <time>2021-03-30T09:19:09Z</time>
      </trkpt>
      <trkpt lat="42.85314" lon="1.4513">
        <ele>1702.15</ele>
        <time>2021-03-30T09:19:39Z</time>
      </trkpt>
      <trkpt lat="42.85317" lon="1.45127">
        <ele>1704.55</ele>
        <time>2021-03-30T09:20:09Z</time>
      </trkpt>
      <trkpt lat="42.85325" lon="1.45118">
        <ele>1708.88</ele>
        <time>2021-03-30T09:20:39Z</time>
      </trkpt>
      <trkpt lat="42.85325" lon="1.45112">
        <ele>1709.84</ele>
        <time>2021-03-30T09:21:09Z</time>
      </trkpt>
      <trkpt lat="42.85335" lon="1.45105">
        <ele>1712.25</ele>
        <time>2021-03-30T09:21:39Z</time>
      </trkpt>
      <trkpt lat="42.85341" lon="1.45094">
        <ele>1716.57</ele>
        <time>2021-03-30T09:22:09Z</time>
      </trkpt>
      <trkpt lat="42.85343" lon="1.45088">
        <ele>1718.97</ele>
        <time>2021-03-30T09:22:39Z</time>
      </trkpt>
      <trkpt lat="42.85344" lon="1.45088">
        <ele>1718.97</ele>
        <time>2021-03-30T09:23:09Z</time>
      </trkpt>
      <trkpt lat="42.85348" lon="1.45081">
        <ele>1720.42</ele>
        <time>2021-03-30T09:23:39Z</time>
      </trkpt>
      <trkpt lat="42.8536" lon="1.45072">
        <ele>1724.26</ele>
        <time>2021-03-30T09:24:09Z</time>
      </trkpt>
      <trkpt lat="42.8537" lon="1.45077">
        <ele>1727.63</ele>
        <time>2021-03-30T09:24:39Z</time>
      </trkpt>
      <trkpt lat="42.85378" lon="1.45077">
        <ele>1729.55</ele>
        <time>2021-03-30T09:25:09Z</time>
      </trkpt>
      <trkpt lat="42.85394" lon="1.45073">
        <ele>1733.88</ele>
        <time>2021-03-30T09:25:39Z</time>
      </trkpt>
      <trkpt lat="42.85402" lon="1.4508">
        <ele>1734.36</ele>
        <time>2021-03-30T09:26:09Z</time>
      </trkpt>
      <trkpt lat="42.85408" lon="1.45094">
        <ele>1735.32</ele>
        <time>2021-03-30T09:26:39Z</time>
      </trkpt>
      <trkpt lat="42.85403" lon="1.45112">
        <ele>1733.88</ele>
        <time>2021-03-30T09:27:09Z</time>
      </trkpt>
      <trkpt lat="42.85407" lon="1.45126">
        <ele>1736.76</ele>
        <time>2021-03-30T09:27:39Z</time>
      </trkpt>
      <trkpt lat="42.85411" lon="1.45147">
        <ele>1741.08</ele>
        <time>2021-03-30T09:28:09Z</time>
      </trkpt>
      <trkpt lat="42.85412" lon="1.45163">
        <ele>1745.89</ele>
        <time>2021-03-30T09:28:39Z</time>
      </trkpt>
      <trkpt lat="42.85416" lon="1.45167">
        <ele>1748.29</ele>
        <time>2021-03-30T09:29:09Z</time>
      </trkpt>
      <trkpt lat="42.85423" lon="1.45165">
        <ele>1751.18</ele>
        <time>2021-03-30T09:29:39Z</time>
      </trkpt>
      <trkpt lat="42.85432" lon="1.45164">
        <ele>1755.5</ele>
        <time>2021-03-30T09:30:09Z</time>
      </trkpt>
      <trkpt lat="42.8544" lon="1.45175">
        <ele>1760.79</ele>
        <time>2021-03-30T09:30:39Z</time>
      </trkpt>
      <trkpt lat="42.85441" lon="1.45175">
        <ele>1761.75</ele>
        <time>2021-03-30T09:31:08Z</time>
      </trkpt>
      <trkpt lat="42.85444" lon="1.45175">
        <ele>1763.68</ele>
        <time>2021-03-30T09:31:39Z</time>
      </trkpt>
      <trkpt lat="42.85458" lon="1.4517">
        <ele>1769.92</ele>
        <time>2021-03-30T09:32:09Z</time>
      </trkpt>
      <trkpt lat="42.85462" lon="1.45165">
        <ele>1772.33</ele>
        <time>2021-03-30T09:32:39Z</time>
      </trkpt>
      <trkpt lat="42.85476" lon="1.45167">
        <ele>1777.61</ele>
        <time>2021-03-30T09:33:09Z</time>
      </trkpt>
      <trkpt lat="42.85486" lon="1.45167">
        <ele>1780.98</ele>
        <time>2021-03-30T09:33:39Z</time>
      </trkpt>
      <trkpt lat="42.85494" lon="1.45157">
        <ele>1787.23</ele>
        <time>2021-03-30T09:34:09Z</time>
      </trkpt>
      <trkpt lat="42.85504" lon="1.45154">
        <ele>1791.55</ele>
        <time>2021-03-30T09:34:39Z</time>
      </trkpt>
      <trkpt lat="42.8551" lon="1.45147">
        <ele>1796.84</ele>
        <time>2021-03-30T09:35:09Z</time>
      </trkpt>
      <trkpt lat="42.85519" lon="1.45142">
        <ele>1799.73</ele>
        <time>2021-03-30T09:35:39Z</time>
      </trkpt>
      <trkpt lat="42.85526" lon="1.45137">
        <ele>1800.69</ele>
        <time>2021-03-30T09:36:09Z</time>
      </trkpt>
      <trkpt lat="42.85536" lon="1.45131">
        <ele>1805.01</ele>
        <time>2021-03-30T09:36:39Z</time>
      </trkpt>
      <trkpt lat="42.8554" lon="1.45128">
        <ele>1807.9</ele>
        <time>2021-03-30T09:37:09Z</time>
      </trkpt>
      <trkpt lat="42.85544" lon="1.45119">
        <ele>1810.78</ele>
        <time>2021-03-30T09:37:39Z</time>
      </trkpt>
      <trkpt lat="42.85551" lon="1.45108">
        <ele>1815.59</ele>
        <time>2021-03-30T09:38:09Z</time>
      </trkpt>
      <trkpt lat="42.85559" lon="1.45099">
        <ele>1819.91</ele>
        <time>2021-03-30T09:38:39Z</time>
      </trkpt>
      <trkpt lat="42.85562" lon="1.45095">
        <ele>1819.91</ele>
        <time>2021-03-30T09:39:09Z</time>
      </trkpt>
      <trkpt lat="42.85575" lon="1.45072">
        <ele>1821.35</ele>
        <time>2021-03-30T09:39:39Z</time>
      </trkpt>
      <trkpt lat="42.85588" lon="1.45055">
        <ele>1824.72</ele>
        <time>2021-03-30T09:40:09Z</time>
      </trkpt>
      <trkpt lat="42.85588" lon="1.45054">
        <ele>1825.2</ele>
        <time>2021-03-30T09:40:39Z</time>
      </trkpt>
      <trkpt lat="42.85588" lon="1.45055">
        <ele>1825.2</ele>
        <time>2021-03-30T09:41:09Z</time>
      </trkpt>
      <trkpt lat="42.85588" lon="1.45054">
        <ele>1825.2</ele>
        <time>2021-03-30T09:41:39Z</time>
      </trkpt>
      <trkpt lat="42.85588" lon="1.45054">
        <ele>1825.2</ele>
        <time>2021-03-30T09:42:09Z</time>
      </trkpt>
      <trkpt lat="42.85597" lon="1.45051">
        <ele>1827.12</ele>
        <time>2021-03-30T09:42:39Z</time>
      </trkpt>
      <trkpt lat="42.85605" lon="1.45044">
        <ele>1830.01</ele>
        <time>2021-03-30T09:43:09Z</time>
      </trkpt>
      <trkpt lat="42.85606" lon="1.45044">
        <ele>1830.01</ele>
        <time>2021-03-30T09:43:39Z</time>
      </trkpt>
      <trkpt lat="42.85606" lon="1.45044">
        <ele>1830.49</ele>
        <time>2021-03-30T09:44:09Z</time>
      </trkpt>
      <trkpt lat="42.85617" lon="1.45055">
        <ele>1832.41</ele>
        <time>2021-03-30T09:44:39Z</time>
      </trkpt>
      <trkpt lat="42.85625" lon="1.45078">
        <ele>1834.81</ele>
        <time>2021-03-30T09:45:09Z</time>
      </trkpt>
      <trkpt lat="42.85631" lon="1.45105">
        <ele>1836.26</ele>
        <time>2021-03-30T09:45:39Z</time>
      </trkpt>
      <trkpt lat="42.85639" lon="1.45123">
        <ele>1840.1</ele>
        <time>2021-03-30T09:46:09Z</time>
      </trkpt>
      <trkpt lat="42.8565" lon="1.45128">
        <ele>1844.91</ele>
        <time>2021-03-30T09:46:39Z</time>
      </trkpt>
      <trkpt lat="42.85658" lon="1.45129">
        <ele>1848.27</ele>
        <time>2021-03-30T09:47:09Z</time>
      </trkpt>
      <trkpt lat="42.85671" lon="1.45133">
        <ele>1852.6</ele>
        <time>2021-03-30T09:47:39Z</time>
      </trkpt>
      <trkpt lat="42.85683" lon="1.45151">
        <ele>1855.96</ele>
        <time>2021-03-30T09:48:09Z</time>
      </trkpt>
      <trkpt lat="42.85687" lon="1.45168">
        <ele>1856.92</ele>
        <time>2021-03-30T09:48:39Z</time>
      </trkpt>
      <trkpt lat="42.85669" lon="1.45198">
        <ele>1852.6</ele>
        <time>2021-03-30T09:49:09Z</time>
      </trkpt>
      <trkpt lat="42.85666" lon="1.45227">
        <ele>1849.71</ele>
        <time>2021-03-30T09:49:39Z</time>
      </trkpt>
      <trkpt lat="42.85665" lon="1.45227">
        <ele>1849.71</ele>
        <time>2021-03-30T09:50:09Z</time>
      </trkpt>
      <trkpt lat="42.85665" lon="1.45227">
        <ele>1849.71</ele>
        <time>2021-03-30T09:50:39Z</time>
      </trkpt>
      <trkpt lat="42.85665" lon="1.45227">
        <ele>1850.19</ele>
        <time>2021-03-30T09:51:09Z</time>
      </trkpt>
      <trkpt lat="42.85665" lon="1.45227">
        <ele>1850.19</ele>
        <time>2021-03-30T09:51:39Z</time>
      </trkpt>
      <trkpt lat="42.85665" lon="1.45227">
        <ele>1850.19</ele>
        <time>2021-03-30T09:52:09Z</time>
      </trkpt>
      <trkpt lat="42.85664" lon="1.45227">
        <ele>1850.19</ele>
        <time>2021-03-30T09:52:39Z</time>
      </trkpt>
      <trkpt lat="42.85664" lon="1.45227">
        <ele>1850.19</ele>
        <time>2021-03-30T09:53:09Z</time>
      </trkpt>
      <trkpt lat="42.85665" lon="1.45228">
        <ele>1850.19</ele>
        <time>2021-03-30T09:53:39Z</time>
      </trkpt>
      <trkpt lat="42.85664" lon="1.45228">
        <ele>1850.19</ele>
        <time>2021-03-30T09:54:09Z</time>
      </trkpt>
      <trkpt lat="42.85655" lon="1.45226">
        <ele>1850.19</ele>
        <time>2021-03-30T09:54:39Z</time>
      </trkpt>
      <trkpt lat="42.85636" lon="1.45233">
        <ele>1849.23</ele>
        <time>2021-03-30T09:55:09Z</time>
      </trkpt>
      <trkpt lat="42.85621" lon="1.45241">
        <ele>1847.79</ele>
        <time>2021-03-30T09:55:39Z</time>
      </trkpt>
      <trkpt lat="42.85619" lon="1.4524">
        <ele>1849.23</ele>
        <time>2021-03-30T09:56:09Z</time>
      </trkpt>
      <trkpt lat="42.85618" lon="1.45239">
        <ele>1849.23</ele>
        <time>2021-03-30T09:56:38Z</time>
      </trkpt>
      <trkpt lat="42.85618" lon="1.45247">
        <ele>1849.71</ele>
        <time>2021-03-30T09:57:09Z</time>
      </trkpt>
      <trkpt lat="42.85611" lon="1.45284">
        <ele>1842.5</ele>
        <time>2021-03-30T09:57:39Z</time>
      </trkpt>
      <trkpt lat="42.85603" lon="1.45317">
        <ele>1837.7</ele>
        <time>2021-03-30T09:58:09Z</time>
      </trkpt>
      <trkpt lat="42.85593" lon="1.45342">
        <ele>1830.97</ele>
        <time>2021-03-30T09:58:39Z</time>
      </trkpt>
      <trkpt lat="42.85584" lon="1.45359">
        <ele>1828.08</ele>
        <time>2021-03-30T09:59:09Z</time>
      </trkpt>
      <trkpt lat="42.8557" lon="1.4539">
        <ele>1823.76</ele>
        <time>2021-03-30T09:59:39Z</time>
      </trkpt>
      <trkpt lat="42.85558" lon="1.45421">
        <ele>1819.91</ele>
        <time>2021-03-30T10:00:09Z</time>
      </trkpt>
      <trkpt lat="42.85547" lon="1.45453">
        <ele>1816.55</ele>
        <time>2021-03-30T10:00:39Z</time>
      </trkpt>
      <trkpt lat="42.85536" lon="1.45488">
        <ele>1814.63</ele>
        <time>2021-03-30T10:01:09Z</time>
      </trkpt>
      <trkpt lat="42.85515" lon="1.45508">
        <ele>1814.15</ele>
        <time>2021-03-30T10:01:39Z</time>
      </trkpt>
      <trkpt lat="42.85501" lon="1.45516">
        <ele>1817.51</ele>
        <time>2021-03-30T10:02:09Z</time>
      </trkpt>
      <trkpt lat="42.85491" lon="1.45523">
        <ele>1820.87</ele>
        <time>2021-03-30T10:02:39Z</time>
      </trkpt>
      <trkpt lat="42.85487" lon="1.45517">
        <ele>1822.32</ele>
        <time>2021-03-30T10:03:08Z</time>
      </trkpt>
      <trkpt lat="42.85487" lon="1.45517">
        <ele>1822.8</ele>
        <time>2021-03-30T10:03:39Z</time>
      </trkpt>
      <trkpt lat="42.85485" lon="1.45523">
        <ele>1823.76</ele>
        <time>2021-03-30T10:04:09Z</time>
      </trkpt>
      <trkpt lat="42.85476" lon="1.45539">
        <ele>1828.08</ele>
        <time>2021-03-30T10:04:39Z</time>
      </trkpt>
      <trkpt lat="42.85471" lon="1.45548">
        <ele>1831.93</ele>
        <time>2021-03-30T10:05:09Z</time>
      </trkpt>
      <trkpt lat="42.85463" lon="1.45557">
        <ele>1836.74</ele>
        <time>2021-03-30T10:05:39Z</time>
      </trkpt>
      <trkpt lat="42.85464" lon="1.45557">
        <ele>1837.22</ele>
        <time>2021-03-30T10:06:09Z</time>
      </trkpt>
      <trkpt lat="42.85457" lon="1.45583">
        <ele>1838.18</ele>
        <time>2021-03-30T10:06:39Z</time>
      </trkpt>
      <trkpt lat="42.8545" lon="1.45605">
        <ele>1841.06</ele>
        <time>2021-03-30T10:07:09Z</time>
      </trkpt>
      <trkpt lat="42.85445" lon="1.4562">
        <ele>1844.43</ele>
        <time>2021-03-30T10:07:39Z</time>
      </trkpt>
      <trkpt lat="42.85441" lon="1.45635">
        <ele>1841.54</ele>
        <time>2021-03-30T10:08:09Z</time>
      </trkpt>
      <trkpt lat="42.85439" lon="1.45656">
        <ele>1844.43</ele>
        <time>2021-03-30T10:08:39Z</time>
      </trkpt>
      <trkpt lat="42.85432" lon="1.45679">
        <ele>1845.39</ele>
        <time>2021-03-30T10:09:09Z</time>
      </trkpt>
      <trkpt lat="42.85423" lon="1.45699">
        <ele>1846.83</ele>
        <time>2021-03-30T10:09:39Z</time>
      </trkpt>
      <trkpt lat="42.85421" lon="1.45706">
        <ele>1845.39</ele>
        <time>2021-03-30T10:10:09Z</time>
      </trkpt>
      <trkpt lat="42.8542" lon="1.45706">
        <ele>1845.39</ele>
        <time>2021-03-30T10:10:39Z</time>
      </trkpt>
      <trkpt lat="42.85417" lon="1.45704">
        <ele>1845.39</ele>
        <time>2021-03-30T10:11:09Z</time>
      </trkpt>
      <trkpt lat="42.85411" lon="1.45716">
        <ele>1841.54</ele>
        <time>2021-03-30T10:11:39Z</time>
      </trkpt>
      <trkpt lat="42.85398" lon="1.45744">
        <ele>1839.14</ele>
        <time>2021-03-30T10:12:09Z</time>
      </trkpt>
      <trkpt lat="42.85389" lon="1.45765">
        <ele>1841.06</ele>
        <time>2021-03-30T10:12:39Z</time>
      </trkpt>
      <trkpt lat="42.85381" lon="1.45789">
        <ele>1843.47</ele>
        <time>2021-03-30T10:13:09Z</time>
      </trkpt>
      <trkpt lat="42.85373" lon="1.45815">
        <ele>1844.91</ele>
        <time>2021-03-30T10:13:39Z</time>
      </trkpt>
      <trkpt lat="42.85366" lon="1.45836">
        <ele>1847.79</ele>
        <time>2021-03-30T10:14:09Z</time>
      </trkpt>
      <trkpt lat="42.85361" lon="1.45856">
        <ele>1852.12</ele>
        <time>2021-03-30T10:14:39Z</time>
      </trkpt>
      <trkpt lat="42.85366" lon="1.45866">
        <ele>1855.48</ele>
        <time>2021-03-30T10:15:09Z</time>
      </trkpt>
      <trkpt lat="42.85363" lon="1.45884">
        <ele>1860.29</ele>
        <time>2021-03-30T10:15:39Z</time>
      </trkpt>
      <trkpt lat="42.85363" lon="1.45886">
        <ele>1861.73</ele>
        <time>2021-03-30T10:16:09Z</time>
      </trkpt>
      <trkpt lat="42.85359" lon="1.45898">
        <ele>1864.13</ele>
        <time>2021-03-30T10:16:39Z</time>
      </trkpt>
      <trkpt lat="42.85359" lon="1.45904">
        <ele>1866.06</ele>
        <time>2021-03-30T10:17:09Z</time>
      </trkpt>
      <trkpt lat="42.85358" lon="1.45908">
        <ele>1868.46</ele>
        <time>2021-03-30T10:17:39Z</time>
      </trkpt>
      <trkpt lat="42.85358" lon="1.45917">
        <ele>1873.75</ele>
        <time>2021-03-30T10:18:09Z</time>
      </trkpt>
      <trkpt lat="42.85354" lon="1.45931">
        <ele>1877.59</ele>
        <time>2021-03-30T10:18:39Z</time>
      </trkpt>
      <trkpt lat="42.85352" lon="1.45943">
        <ele>1880.96</ele>
        <time>2021-03-30T10:19:09Z</time>
      </trkpt>
      <trkpt lat="42.85349" lon="1.45954">
        <ele>1884.8</ele>
        <time>2021-03-30T10:19:39Z</time>
      </trkpt>
      <trkpt lat="42.85347" lon="1.45964">
        <ele>1889.13</ele>
        <time>2021-03-30T10:20:09Z</time>
      </trkpt>
      <trkpt lat="42.85345" lon="1.45978">
        <ele>1893.45</ele>
        <time>2021-03-30T10:20:39Z</time>
      </trkpt>
      <trkpt lat="42.85345" lon="1.45989">
        <ele>1897.3</ele>
        <time>2021-03-30T10:21:09Z</time>
      </trkpt>
      <trkpt lat="42.85342" lon="1.45996">
        <ele>1898.74</ele>
        <time>2021-03-30T10:21:39Z</time>
      </trkpt>
      <trkpt lat="42.85341" lon="1.46001">
        <ele>1899.7</ele>
        <time>2021-03-30T10:22:09Z</time>
      </trkpt>
      <trkpt lat="42.8534" lon="1.46016">
        <ele>1900.18</ele>
        <time>2021-03-30T10:22:39Z</time>
      </trkpt>
      <trkpt lat="42.85343" lon="1.46038">
        <ele>1906.43</ele>
        <time>2021-03-30T10:23:09Z</time>
      </trkpt>
      <trkpt lat="42.85357" lon="1.46047">
        <ele>1909.8</ele>
        <time>2021-03-30T10:23:39Z</time>
      </trkpt>
      <trkpt lat="42.85358" lon="1.46055">
        <ele>1914.6</ele>
        <time>2021-03-30T10:24:09Z</time>
      </trkpt>
      <trkpt lat="42.8536" lon="1.46074">
        <ele>1919.41</ele>
        <time>2021-03-30T10:24:39Z</time>
      </trkpt>
      <trkpt lat="42.85355" lon="1.46098">
        <ele>1923.74</ele>
        <time>2021-03-30T10:25:09Z</time>
      </trkpt>
      <trkpt lat="42.85356" lon="1.46128">
        <ele>1928.54</ele>
        <time>2021-03-30T10:25:39Z</time>
      </trkpt>
      <trkpt lat="42.85363" lon="1.46157">
        <ele>1931.43</ele>
        <time>2021-03-30T10:26:09Z</time>
      </trkpt>
      <trkpt lat="42.85381" lon="1.46183">
        <ele>1933.35</ele>
        <time>2021-03-30T10:26:39Z</time>
      </trkpt>
      <trkpt lat="42.85401" lon="1.4619">
        <ele>1937.67</ele>
        <time>2021-03-30T10:27:09Z</time>
      </trkpt>
      <trkpt lat="42.85406" lon="1.4619">
        <ele>1939.12</ele>
        <time>2021-03-30T10:27:39Z</time>
      </trkpt>
      <trkpt lat="42.85406" lon="1.46189">
        <ele>1939.12</ele>
        <time>2021-03-30T10:28:09Z</time>
      </trkpt>
      <trkpt lat="42.85406" lon="1.4619">
        <ele>1939.12</ele>
        <time>2021-03-30T10:28:38Z</time>
      </trkpt>
      <trkpt lat="42.85406" lon="1.4619">
        <ele>1939.12</ele>
        <time>2021-03-30T10:29:09Z</time>
      </trkpt>
      <trkpt lat="42.85406" lon="1.4619">
        <ele>1939.12</ele>
        <time>2021-03-30T10:29:39Z</time>
      </trkpt>
      <trkpt lat="42.85404" lon="1.46191">
        <ele>1939.12</ele>
        <time>2021-03-30T10:30:09Z</time>
      </trkpt>
      <trkpt lat="42.85404" lon="1.46189">
        <ele>1939.12</ele>
        <time>2021-03-30T10:30:39Z</time>
      </trkpt>
      <trkpt lat="42.85404" lon="1.46189">
        <ele>1939.12</ele>
        <time>2021-03-30T10:31:09Z</time>
      </trkpt>
      <trkpt lat="42.85404" lon="1.46188">
        <ele>1939.12</ele>
        <time>2021-03-30T10:31:39Z</time>
      </trkpt>
      <trkpt lat="42.85404" lon="1.46188">
        <ele>1939.12</ele>
        <time>2021-03-30T10:32:09Z</time>
      </trkpt>
      <trkpt lat="42.85402" lon="1.46189">
        <ele>1938.16</ele>
        <time>2021-03-30T10:32:39Z</time>
      </trkpt>
      <trkpt lat="42.85403" lon="1.46188">
        <ele>1939.6</ele>
        <time>2021-03-30T10:33:09Z</time>
      </trkpt>
      <trkpt lat="42.85403" lon="1.46188">
        <ele>1939.6</ele>
        <time>2021-03-30T10:33:39Z</time>
      </trkpt>
      <trkpt lat="42.85404" lon="1.46188">
        <ele>1939.6</ele>
        <time>2021-03-30T10:34:09Z</time>
      </trkpt>
      <trkpt lat="42.85404" lon="1.46188">
        <ele>1939.6</ele>
        <time>2021-03-30T10:34:39Z</time>
      </trkpt>
      <trkpt lat="42.85404" lon="1.46188">
        <ele>1939.6</ele>
        <time>2021-03-30T10:35:09Z</time>
      </trkpt>
      <trkpt lat="42.85404" lon="1.46189">
        <ele>1940.08</ele>
        <time>2021-03-30T10:35:39Z</time>
      </trkpt>
      <trkpt lat="42.85404" lon="1.46188">
        <ele>1940.08</ele>
        <time>2021-03-30T10:36:09Z</time>
      </trkpt>
      <trkpt lat="42.85404" lon="1.46189">
        <ele>1940.08</ele>
        <time>2021-03-30T10:36:39Z</time>
      </trkpt>
      <trkpt lat="42.85403" lon="1.4619">
        <ele>1938.16</ele>
        <time>2021-03-30T10:37:09Z</time>
      </trkpt>
      <trkpt lat="42.85402" lon="1.46191">
        <ele>1938.16</ele>
        <time>2021-03-30T10:37:39Z</time>
      </trkpt>
      <trkpt lat="42.85402" lon="1.46192">
        <ele>1937.67</ele>
        <time>2021-03-30T10:38:09Z</time>
      </trkpt>
      <trkpt lat="42.85403" lon="1.46193">
        <ele>1937.19</ele>
        <time>2021-03-30T10:38:39Z</time>
      </trkpt>
      <trkpt lat="42.85403" lon="1.46194">
        <ele>1937.19</ele>
        <time>2021-03-30T10:39:09Z</time>
      </trkpt>
      <trkpt lat="42.85403" lon="1.46194">
        <ele>1938.64</ele>
        <time>2021-03-30T10:39:39Z</time>
      </trkpt>
      <trkpt lat="42.85403" lon="1.46194">
        <ele>1938.64</ele>
        <time>2021-03-30T10:40:09Z</time>
      </trkpt>
      <trkpt lat="42.85403" lon="1.46194">
        <ele>1938.64</ele>
        <time>2021-03-30T10:40:39Z</time>
      </trkpt>
      <trkpt lat="42.85403" lon="1.46194">
        <ele>1938.64</ele>
        <time>2021-03-30T10:41:09Z</time>
      </trkpt>
      <trkpt lat="42.85403" lon="1.46194">
        <ele>1939.6</ele>
        <time>2021-03-30T10:41:39Z</time>
      </trkpt>
      <trkpt lat="42.85403" lon="1.46194">
        <ele>1938.16</ele>
        <time>2021-03-30T10:42:09Z</time>
      </trkpt>
      <trkpt lat="42.85403" lon="1.46194">
        <ele>1938.16</ele>
        <time>2021-03-30T10:42:39Z</time>
      </trkpt>
      <trkpt lat="42.85403" lon="1.46194">
        <ele>1937.67</ele>
        <time>2021-03-30T10:43:09Z</time>
      </trkpt>
      <trkpt lat="42.85402" lon="1.46194">
        <ele>1937.67</ele>
        <time>2021-03-30T10:43:39Z</time>
      </trkpt>
      <trkpt lat="42.85402" lon="1.46194">
        <ele>1937.67</ele>
        <time>2021-03-30T10:44:09Z</time>
      </trkpt>
      <trkpt lat="42.85402" lon="1.46195">
        <ele>1937.67</ele>
        <time>2021-03-30T10:44:39Z</time>
      </trkpt>
      <trkpt lat="42.85402" lon="1.46195">
        <ele>1937.67</ele>
        <time>2021-03-30T10:45:09Z</time>
      </trkpt>
      <trkpt lat="42.85402" lon="1.46194">
        <ele>1937.67</ele>
        <time>2021-03-30T10:45:39Z</time>
      </trkpt>
      <trkpt lat="42.85402" lon="1.46195">
        <ele>1937.67</ele>
        <time>2021-03-30T10:46:09Z</time>
      </trkpt>
      <trkpt lat="42.85402" lon="1.46194">
        <ele>1937.67</ele>
        <time>2021-03-30T10:46:39Z</time>
      </trkpt>
      <trkpt lat="42.85402" lon="1.46194">
        <ele>1937.67</ele>
        <time>2021-03-30T10:47:09Z</time>
      </trkpt>
      <trkpt lat="42.85402" lon="1.46194">
        <ele>1937.67</ele>
        <time>2021-03-30T10:47:39Z</time>
      </trkpt>
      <trkpt lat="42.85402" lon="1.46194">
        <ele>1937.67</ele>
        <time>2021-03-30T10:48:09Z</time>
      </trkpt>
      <trkpt lat="42.85402" lon="1.46194">
        <ele>1939.12</ele>
        <time>2021-03-30T10:48:39Z</time>
      </trkpt>
      <trkpt lat="42.85402" lon="1.46194">
        <ele>1939.12</ele>
        <time>2021-03-30T10:49:09Z</time>
      </trkpt>
      <trkpt lat="42.85402" lon="1.46194">
        <ele>1939.12</ele>
        <time>2021-03-30T10:49:39Z</time>
      </trkpt>
      <trkpt lat="42.85402" lon="1.46194">
        <ele>1939.12</ele>
        <time>2021-03-30T10:50:09Z</time>
      </trkpt>
      <trkpt lat="42.85402" lon="1.46194">
        <ele>1939.12</ele>
        <time>2021-03-30T10:50:39Z</time>
      </trkpt>
      <trkpt lat="42.85402" lon="1.46195">
        <ele>1939.12</ele>
        <time>2021-03-30T10:51:09Z</time>
      </trkpt>
      <trkpt lat="42.85403" lon="1.46195">
        <ele>1939.6</ele>
        <time>2021-03-30T10:51:39Z</time>
      </trkpt>
      <trkpt lat="42.85403" lon="1.46194">
        <ele>1939.6</ele>
        <time>2021-03-30T10:52:09Z</time>
      </trkpt>
      <trkpt lat="42.85403" lon="1.46194">
        <ele>1939.6</ele>
        <time>2021-03-30T10:52:39Z</time>
      </trkpt>
      <trkpt lat="42.85403" lon="1.46194">
        <ele>1939.6</ele>
        <time>2021-03-30T10:53:09Z</time>
      </trkpt>
      <trkpt lat="42.85403" lon="1.46193">
        <ele>1939.6</ele>
        <time>2021-03-30T10:53:39Z</time>
      </trkpt>
      <trkpt lat="42.85403" lon="1.46193">
        <ele>1939.6</ele>
        <time>2021-03-30T10:54:09Z</time>
      </trkpt>
      <trkpt lat="42.85404" lon="1.46193">
        <ele>1939.6</ele>
        <time>2021-03-30T10:54:39Z</time>
      </trkpt>
      <trkpt lat="42.85404" lon="1.46193">
        <ele>1940.08</ele>
        <time>2021-03-30T10:55:09Z</time>
      </trkpt>
      <trkpt lat="42.85404" lon="1.46193">
        <ele>1940.08</ele>
        <time>2021-03-30T10:55:39Z</time>
      </trkpt>
      <trkpt lat="42.85404" lon="1.46193">
        <ele>1940.08</ele>
        <time>2021-03-30T10:56:09Z</time>
      </trkpt>
      <trkpt lat="42.85404" lon="1.46193">
        <ele>1940.08</ele>
        <time>2021-03-30T10:56:39Z</time>
      </trkpt>
      <trkpt lat="42.85404" lon="1.46193">
        <ele>1940.08</ele>
        <time>2021-03-30T10:57:09Z</time>
      </trkpt>
      <trkpt lat="42.85404" lon="1.46193">
        <ele>1940.08</ele>
        <time>2021-03-30T10:57:39Z</time>
      </trkpt>
      <trkpt lat="42.85404" lon="1.46193">
        <ele>1940.08</ele>
        <time>2021-03-30T10:58:09Z</time>
      </trkpt>
      <trkpt lat="42.85404" lon="1.46193">
        <ele>1940.08</ele>
        <time>2021-03-30T10:58:39Z</time>
      </trkpt>
      <trkpt lat="42.85404" lon="1.46193">
        <ele>1940.08</ele>
        <time>2021-03-30T10:59:09Z</time>
      </trkpt>
      <trkpt lat="42.85404" lon="1.46193">
        <ele>1941.04</ele>
        <time>2021-03-30T10:59:39Z</time>
      </trkpt>
      <trkpt lat="42.85404" lon="1.46193">
        <ele>1941.04</ele>
        <time>2021-03-30T11:00:09Z</time>
      </trkpt>
      <trkpt lat="42.85404" lon="1.46193">
        <ele>1941.04</ele>
        <time>2021-03-30T11:00:39Z</time>
      </trkpt>
      <trkpt lat="42.85404" lon="1.46193">
        <ele>1941.04</ele>
        <time>2021-03-30T11:01:09Z</time>
      </trkpt>
      <trkpt lat="42.85404" lon="1.46194">
        <ele>1941.04</ele>
        <time>2021-03-30T11:01:39Z</time>
      </trkpt>
      <trkpt lat="42.85404" lon="1.46194">
        <ele>1941.04</ele>
        <time>2021-03-30T11:02:08Z</time>
      </trkpt>
      <trkpt lat="42.85404" lon="1.46194">
        <ele>1941.04</ele>
        <time>2021-03-30T11:02:39Z</time>
      </trkpt>
      <trkpt lat="42.85404" lon="1.46194">
        <ele>1941.04</ele>
        <time>2021-03-30T11:03:09Z</time>
      </trkpt>
      <trkpt lat="42.85404" lon="1.46194">
        <ele>1941.04</ele>
        <time>2021-03-30T11:03:39Z</time>
      </trkpt>
      <trkpt lat="42.85404" lon="1.46194">
        <ele>1941.04</ele>
        <time>2021-03-30T11:04:09Z</time>
      </trkpt>
      <trkpt lat="42.85405" lon="1.46194">
        <ele>1941.04</ele>
        <time>2021-03-30T11:04:39Z</time>
      </trkpt>
      <trkpt lat="42.85405" lon="1.46194">
        <ele>1941.04</ele>
        <time>2021-03-30T11:05:09Z</time>
      </trkpt>
      <trkpt lat="42.85406" lon="1.46193">
        <ele>1941.04</ele>
        <time>2021-03-30T11:05:39Z</time>
      </trkpt>
      <trkpt lat="42.85406" lon="1.46193">
        <ele>1941.04</ele>
        <time>2021-03-30T11:06:09Z</time>
      </trkpt>
      <trkpt lat="42.85406" lon="1.46193">
        <ele>1941.04</ele>
        <time>2021-03-30T11:06:39Z</time>
      </trkpt>
      <trkpt lat="42.85406" lon="1.46193">
        <ele>1941.04</ele>
        <time>2021-03-30T11:07:09Z</time>
      </trkpt>
      <trkpt lat="42.85406" lon="1.46193">
        <ele>1941.04</ele>
        <time>2021-03-30T11:07:39Z</time>
      </trkpt>
      <trkpt lat="42.85405" lon="1.46193">
        <ele>1941.04</ele>
        <time>2021-03-30T11:08:09Z</time>
      </trkpt>
      <trkpt lat="42.85404" lon="1.46193">
        <ele>1941.04</ele>
        <time>2021-03-30T11:08:39Z</time>
      </trkpt>
      <trkpt lat="42.85404" lon="1.46193">
        <ele>1941.04</ele>
        <time>2021-03-30T11:09:09Z</time>
      </trkpt>
      <trkpt lat="42.85404" lon="1.46193">
        <ele>1941.04</ele>
        <time>2021-03-30T11:09:39Z</time>
      </trkpt>
      <trkpt lat="42.85404" lon="1.46193">
        <ele>1941.04</ele>
        <time>2021-03-30T11:10:08Z</time>
      </trkpt>
      <trkpt lat="42.85403" lon="1.46193">
        <ele>1942</ele>
        <time>2021-03-30T11:10:39Z</time>
      </trkpt>
      <trkpt lat="42.85404" lon="1.46191">
        <ele>1942</ele>
        <time>2021-03-30T11:11:09Z</time>
      </trkpt>
      <trkpt lat="42.85404" lon="1.46191">
        <ele>1942</ele>
        <time>2021-03-30T11:11:38Z</time>
      </trkpt>
      <trkpt lat="42.85405" lon="1.46191">
        <ele>1942</ele>
        <time>2021-03-30T11:12:09Z</time>
      </trkpt>
      <trkpt lat="42.85403" lon="1.46187">
        <ele>1942</ele>
        <time>2021-03-30T11:12:39Z</time>
      </trkpt>
      <trkpt lat="42.85379" lon="1.46188">
        <ele>1938.64</ele>
        <time>2021-03-30T11:13:09Z</time>
      </trkpt>
      <trkpt lat="42.8535" lon="1.46192">
        <ele>1935.27</ele>
        <time>2021-03-30T11:13:39Z</time>
      </trkpt>
      <trkpt lat="42.85327" lon="1.46196">
        <ele>1932.87</ele>
        <time>2021-03-30T11:14:09Z</time>
      </trkpt>
      <trkpt lat="42.85308" lon="1.46213">
        <ele>1929.02</ele>
        <time>2021-03-30T11:14:39Z</time>
      </trkpt>
      <trkpt lat="42.85283" lon="1.46232">
        <ele>1926.62</ele>
        <time>2021-03-30T11:15:09Z</time>
      </trkpt>
      <trkpt lat="42.8526" lon="1.46252">
        <ele>1925.66</ele>
        <time>2021-03-30T11:15:39Z</time>
      </trkpt>
      <trkpt lat="42.8524" lon="1.46274">
        <ele>1928.54</ele>
        <time>2021-03-30T11:16:09Z</time>
      </trkpt>
      <trkpt lat="42.8522" lon="1.46286">
        <ele>1931.43</ele>
        <time>2021-03-30T11:16:39Z</time>
      </trkpt>
      <trkpt lat="42.852" lon="1.46297">
        <ele>1929.98</ele>
        <time>2021-03-30T11:17:09Z</time>
      </trkpt>
      <trkpt lat="42.8518" lon="1.46292">
        <ele>1923.74</ele>
        <time>2021-03-30T11:17:39Z</time>
      </trkpt>
      <trkpt lat="42.85159" lon="1.46281">
        <ele>1917.97</ele>
        <time>2021-03-30T11:18:09Z</time>
      </trkpt>
      <trkpt lat="42.8514" lon="1.46279">
        <ele>1910.28</ele>
        <time>2021-03-30T11:18:39Z</time>
      </trkpt>
      <trkpt lat="42.85126" lon="1.46262">
        <ele>1903.55</ele>
        <time>2021-03-30T11:19:09Z</time>
      </trkpt>
      <trkpt lat="42.85108" lon="1.46259">
        <ele>1895.38</ele>
        <time>2021-03-30T11:19:39Z</time>
      </trkpt>
      <trkpt lat="42.85106" lon="1.4623">
        <ele>1889.61</ele>
        <time>2021-03-30T11:20:09Z</time>
      </trkpt>
      <trkpt lat="42.85095" lon="1.46213">
        <ele>1882.88</ele>
        <time>2021-03-30T11:20:39Z</time>
      </trkpt>
      <trkpt lat="42.85088" lon="1.46191">
        <ele>1876.63</ele>
        <time>2021-03-30T11:21:09Z</time>
      </trkpt>
      <trkpt lat="42.85079" lon="1.46168">
        <ele>1869.42</ele>
        <time>2021-03-30T11:21:39Z</time>
      </trkpt>
      <trkpt lat="42.8506" lon="1.46164">
        <ele>1863.17</ele>
        <time>2021-03-30T11:22:09Z</time>
      </trkpt>
      <trkpt lat="42.85044" lon="1.46151">
        <ele>1855.96</ele>
        <time>2021-03-30T11:22:39Z</time>
      </trkpt>
      <trkpt lat="42.85027" lon="1.46149">
        <ele>1850.19</ele>
        <time>2021-03-30T11:23:09Z</time>
      </trkpt>
      <trkpt lat="42.85013" lon="1.46134">
        <ele>1842.5</ele>
        <time>2021-03-30T11:23:39Z</time>
      </trkpt>
      <trkpt lat="42.84998" lon="1.46127">
        <ele>1835.77</ele>
        <time>2021-03-30T11:24:09Z</time>
      </trkpt>
      <trkpt lat="42.8499" lon="1.46115">
        <ele>1831.93</ele>
        <time>2021-03-30T11:24:39Z</time>
      </trkpt>
      <trkpt lat="42.84971" lon="1.46103">
        <ele>1824.24</ele>
        <time>2021-03-30T11:25:09Z</time>
      </trkpt>
      <trkpt lat="42.84952" lon="1.46087">
        <ele>1815.59</ele>
        <time>2021-03-30T11:25:39Z</time>
      </trkpt>
      <trkpt lat="42.84935" lon="1.46085">
        <ele>1808.86</ele>
        <time>2021-03-30T11:26:09Z</time>
      </trkpt>
      <trkpt lat="42.84931" lon="1.46061">
        <ele>1801.65</ele>
        <time>2021-03-30T11:26:39Z</time>
      </trkpt>
      <trkpt lat="42.84916" lon="1.46041">
        <ele>1794.44</ele>
        <time>2021-03-30T11:27:09Z</time>
      </trkpt>
      <trkpt lat="42.84896" lon="1.46028">
        <ele>1787.23</ele>
        <time>2021-03-30T11:27:39Z</time>
      </trkpt>
      <trkpt lat="42.84885" lon="1.46001">
        <ele>1779.54</ele>
        <time>2021-03-30T11:28:09Z</time>
      </trkpt>
      <trkpt lat="42.84884" lon="1.45967">
        <ele>1773.77</ele>
        <time>2021-03-30T11:28:39Z</time>
      </trkpt>
      <trkpt lat="42.84863" lon="1.4596">
        <ele>1768.48</ele>
        <time>2021-03-30T11:29:09Z</time>
      </trkpt>
      <trkpt lat="42.84841" lon="1.45942">
        <ele>1763.2</ele>
        <time>2021-03-30T11:29:39Z</time>
      </trkpt>
      <trkpt lat="42.84824" lon="1.45928">
        <ele>1756.47</ele>
        <time>2021-03-30T11:30:09Z</time>
      </trkpt>
      <trkpt lat="42.84812" lon="1.45907">
        <ele>1749.74</ele>
        <time>2021-03-30T11:30:39Z</time>
      </trkpt>
      <trkpt lat="42.84801" lon="1.45903">
        <ele>1744.93</ele>
        <time>2021-03-30T11:31:09Z</time>
      </trkpt>
      <trkpt lat="42.84781" lon="1.45888">
        <ele>1737.24</ele>
        <time>2021-03-30T11:31:39Z</time>
      </trkpt>
      <trkpt lat="42.84764" lon="1.45874">
        <ele>1730.51</ele>
        <time>2021-03-30T11:32:09Z</time>
      </trkpt>
      <trkpt lat="42.84745" lon="1.45855">
        <ele>1723.3</ele>
        <time>2021-03-30T11:32:39Z</time>
      </trkpt>
      <trkpt lat="42.84727" lon="1.4583">
        <ele>1723.3</ele>
        <time>2021-03-30T11:33:09Z</time>
      </trkpt>
      <trkpt lat="42.84718" lon="1.45822">
        <ele>1722.82</ele>
        <time>2021-03-30T11:33:39Z</time>
      </trkpt>
      <trkpt lat="42.84719" lon="1.45821">
        <ele>1722.82</ele>
        <time>2021-03-30T11:34:09Z</time>
      </trkpt>
      <trkpt lat="42.84719" lon="1.45821">
        <ele>1722.82</ele>
        <time>2021-03-30T11:34:39Z</time>
      </trkpt>
      <trkpt lat="42.84719" lon="1.45821">
        <ele>1722.82</ele>
        <time>2021-03-30T11:35:09Z</time>
      </trkpt>
      <trkpt lat="42.84714" lon="1.45826">
        <ele>1721.86</ele>
        <time>2021-03-30T11:35:39Z</time>
      </trkpt>
      <trkpt lat="42.84705" lon="1.45824">
        <ele>1717.05</ele>
        <time>2021-03-30T11:36:09Z</time>
      </trkpt>
      <trkpt lat="42.84697" lon="1.45828">
        <ele>1709.84</ele>
        <time>2021-03-30T11:36:39Z</time>
      </trkpt>
      <trkpt lat="42.84676" lon="1.45837">
        <ele>1704.07</ele>
        <time>2021-03-30T11:37:09Z</time>
      </trkpt>
      <trkpt lat="42.8466" lon="1.45836">
        <ele>1696.38</ele>
        <time>2021-03-30T11:37:39Z</time>
      </trkpt>
      <trkpt lat="42.84645" lon="1.45823">
        <ele>1689.17</ele>
        <time>2021-03-30T11:38:09Z</time>
      </trkpt>
      <trkpt lat="42.84625" lon="1.45838">
        <ele>1681</ele>
        <time>2021-03-30T11:38:39Z</time>
      </trkpt>
      <trkpt lat="42.84611" lon="1.45846">
        <ele>1674.27</ele>
        <time>2021-03-30T11:39:09Z</time>
      </trkpt>
      <trkpt lat="42.84591" lon="1.45854">
        <ele>1666.1</ele>
        <time>2021-03-30T11:39:39Z</time>
      </trkpt>
      <trkpt lat="42.84583" lon="1.45842">
        <ele>1662.74</ele>
        <time>2021-03-30T11:40:09Z</time>
      </trkpt>
      <trkpt lat="42.84571" lon="1.45808">
        <ele>1656.49</ele>
        <time>2021-03-30T11:40:39Z</time>
      </trkpt>
      <trkpt lat="42.84557" lon="1.45777">
        <ele>1649.76</ele>
        <time>2021-03-30T11:41:09Z</time>
      </trkpt>
      <trkpt lat="42.84531" lon="1.45761">
        <ele>1643.51</ele>
        <time>2021-03-30T11:41:39Z</time>
      </trkpt>
      <trkpt lat="42.84524" lon="1.45744">
        <ele>1640.63</ele>
        <time>2021-03-30T11:42:09Z</time>
      </trkpt>
      <trkpt lat="42.84525" lon="1.4574">
        <ele>1639.67</ele>
        <time>2021-03-30T11:42:39Z</time>
      </trkpt>
      <trkpt lat="42.84525" lon="1.4574">
        <ele>1639.67</ele>
        <time>2021-03-30T11:43:09Z</time>
      </trkpt>
      <trkpt lat="42.84544" lon="1.45723">
        <ele>1635.34</ele>
        <time>2021-03-30T11:43:39Z</time>
      </trkpt>
      <trkpt lat="42.84559" lon="1.45705">
        <ele>1629.57</ele>
        <time>2021-03-30T11:44:09Z</time>
      </trkpt>
      <trkpt lat="42.84544" lon="1.45697">
        <ele>1621.88</ele>
        <time>2021-03-30T11:44:39Z</time>
      </trkpt>
      <trkpt lat="42.84543" lon="1.45686">
        <ele>1614.67</ele>
        <time>2021-03-30T11:45:09Z</time>
      </trkpt>
      <trkpt lat="42.84535" lon="1.45673">
        <ele>1607.94</ele>
        <time>2021-03-30T11:45:39Z</time>
      </trkpt>
      <trkpt lat="42.8452" lon="1.45678">
        <ele>1603.14</ele>
        <time>2021-03-30T11:46:09Z</time>
      </trkpt>
      <trkpt lat="42.84512" lon="1.45675">
        <ele>1598.81</ele>
        <time>2021-03-30T11:46:39Z</time>
      </trkpt>
      <trkpt lat="42.84498" lon="1.45669">
        <ele>1595.45</ele>
        <time>2021-03-30T11:47:09Z</time>
      </trkpt>
      <trkpt lat="42.84478" lon="1.45668">
        <ele>1590.16</ele>
        <time>2021-03-30T11:47:39Z</time>
      </trkpt>
      <trkpt lat="42.84468" lon="1.45661">
        <ele>1584.87</ele>
        <time>2021-03-30T11:48:09Z</time>
      </trkpt>
      <trkpt lat="42.84445" lon="1.45659">
        <ele>1579.58</ele>
        <time>2021-03-30T11:48:39Z</time>
      </trkpt>
      <trkpt lat="42.84425" lon="1.45655">
        <ele>1576.22</ele>
        <time>2021-03-30T11:49:09Z</time>
      </trkpt>
      <trkpt lat="42.84418" lon="1.45651">
        <ele>1576.22</ele>
        <time>2021-03-30T11:49:39Z</time>
      </trkpt>
      <trkpt lat="42.84418" lon="1.4565">
        <ele>1576.22</ele>
        <time>2021-03-30T11:50:09Z</time>
      </trkpt>
      <trkpt lat="42.84417" lon="1.45651">
        <ele>1576.22</ele>
        <time>2021-03-30T11:50:39Z</time>
      </trkpt>
      <trkpt lat="42.84405" lon="1.45651">
        <ele>1569.49</ele>
        <time>2021-03-30T11:51:09Z</time>
      </trkpt>
      <trkpt lat="42.84397" lon="1.45649">
        <ele>1564.2</ele>
        <time>2021-03-30T11:51:39Z</time>
      </trkpt>
      <trkpt lat="42.84388" lon="1.45642">
        <ele>1556.99</ele>
        <time>2021-03-30T11:52:09Z</time>
      </trkpt>
      <trkpt lat="42.84397" lon="1.45624">
        <ele>1551.22</ele>
        <time>2021-03-30T11:52:39Z</time>
      </trkpt>
      <trkpt lat="42.84389" lon="1.4561">
        <ele>1542.09</ele>
        <time>2021-03-30T11:53:09Z</time>
      </trkpt>
      <trkpt lat="42.84391" lon="1.45594">
        <ele>1536.32</ele>
        <time>2021-03-30T11:53:39Z</time>
      </trkpt>
      <trkpt lat="42.84384" lon="1.45585">
        <ele>1530.56</ele>
        <time>2021-03-30T11:54:09Z</time>
      </trkpt>
      <trkpt lat="42.84373" lon="1.4557">
        <ele>1523.83</ele>
        <time>2021-03-30T11:54:39Z</time>
      </trkpt>
      <trkpt lat="42.84369" lon="1.45555">
        <ele>1516.62</ele>
        <time>2021-03-30T11:55:09Z</time>
      </trkpt>
      <trkpt lat="42.84354" lon="1.45556">
        <ele>1508.93</ele>
        <time>2021-03-30T11:55:39Z</time>
      </trkpt>
      <trkpt lat="42.84348" lon="1.45538">
        <ele>1500.76</ele>
        <time>2021-03-30T11:56:09Z</time>
      </trkpt>
      <trkpt lat="42.84334" lon="1.45542">
        <ele>1494.99</ele>
        <time>2021-03-30T11:56:39Z</time>
      </trkpt>
      <trkpt lat="42.84316" lon="1.45552">
        <ele>1490.66</ele>
        <time>2021-03-30T11:57:09Z</time>
      </trkpt>
      <trkpt lat="42.84301" lon="1.45542">
        <ele>1482.49</ele>
        <time>2021-03-30T11:57:39Z</time>
      </trkpt>
      <trkpt lat="42.8429" lon="1.45514">
        <ele>1474.8</ele>
        <time>2021-03-30T11:58:08Z</time>
      </trkpt>
      <trkpt lat="42.84287" lon="1.45479">
        <ele>1468.55</ele>
        <time>2021-03-30T11:58:39Z</time>
      </trkpt>
      <trkpt lat="42.84303" lon="1.45439">
        <ele>1462.3</ele>
        <time>2021-03-30T11:59:09Z</time>
      </trkpt>
      <trkpt lat="42.8431" lon="1.45399">
        <ele>1457.02</ele>
        <time>2021-03-30T11:59:39Z</time>
      </trkpt>
      <trkpt lat="42.84312" lon="1.45371">
        <ele>1452.21</ele>
        <time>2021-03-30T12:00:08Z</time>
      </trkpt>
      <trkpt lat="42.84311" lon="1.45368">
        <ele>1450.77</ele>
        <time>2021-03-30T12:00:39Z</time>
      </trkpt>
      <trkpt lat="42.84301" lon="1.45322">
        <ele>1447.4</ele>
        <time>2021-03-30T12:01:09Z</time>
      </trkpt>
      <trkpt lat="42.84307" lon="1.45286">
        <ele>1447.4</ele>
        <time>2021-03-30T12:01:39Z</time>
      </trkpt>
      <trkpt lat="42.84307" lon="1.45261">
        <ele>1447.88</ele>
        <time>2021-03-30T12:02:09Z</time>
      </trkpt>
      <trkpt lat="42.84311" lon="1.45255">
        <ele>1447.4</ele>
        <time>2021-03-30T12:02:39Z</time>
      </trkpt>
      <trkpt lat="42.84312" lon="1.45253">
        <ele>1447.4</ele>
        <time>2021-03-30T12:03:09Z</time>
      </trkpt>
      <trkpt lat="42.84314" lon="1.45247">
        <ele>1447.4</ele>
        <time>2021-03-30T12:03:39Z</time>
      </trkpt>
      <trkpt lat="42.84284" lon="1.4524">
        <ele>1447.4</ele>
        <time>2021-03-30T12:04:09Z</time>
      </trkpt>
      <trkpt lat="42.84261" lon="1.45234">
        <ele>1445</ele>
        <time>2021-03-30T12:04:39Z</time>
      </trkpt>
      <trkpt lat="42.84233" lon="1.45222">
        <ele>1438.75</ele>
        <time>2021-03-30T12:05:09Z</time>
      </trkpt>
      <trkpt lat="42.8421" lon="1.45215">
        <ele>1430.1</ele>
        <time>2021-03-30T12:05:39Z</time>
      </trkpt>
      <trkpt lat="42.84187" lon="1.45212">
        <ele>1421.45</ele>
        <time>2021-03-30T12:06:09Z</time>
      </trkpt>
      <trkpt lat="42.84158" lon="1.45204">
        <ele>1414.24</ele>
        <time>2021-03-30T12:06:39Z</time>
      </trkpt>
      <trkpt lat="42.84151" lon="1.45182">
        <ele>1410.39</ele>
        <time>2021-03-30T12:07:09Z</time>
      </trkpt>
      <trkpt lat="42.84141" lon="1.45169">
        <ele>1406.55</ele>
        <time>2021-03-30T12:07:39Z</time>
      </trkpt>
      <trkpt lat="42.84139" lon="1.4515">
        <ele>1402.22</ele>
        <time>2021-03-30T12:08:09Z</time>
      </trkpt>
      <trkpt lat="42.84133" lon="1.45128">
        <ele>1397.89</ele>
        <time>2021-03-30T12:08:39Z</time>
      </trkpt>
      <trkpt lat="42.84115" lon="1.45137">
        <ele>1393.09</ele>
        <time>2021-03-30T12:09:09Z</time>
      </trkpt>
      <trkpt lat="42.84093" lon="1.45148">
        <ele>1388.28</ele>
        <time>2021-03-30T12:09:39Z</time>
      </trkpt>
      <trkpt lat="42.84078" lon="1.45169">
        <ele>1381.55</ele>
        <time>2021-03-30T12:10:08Z</time>
      </trkpt>
      <trkpt lat="42.84073" lon="1.45197">
        <ele>1376.75</ele>
        <time>2021-03-30T12:10:39Z</time>
      </trkpt>
      <trkpt lat="42.84059" lon="1.45225">
        <ele>1371.46</ele>
        <time>2021-03-30T12:11:09Z</time>
      </trkpt>
      <trkpt lat="42.84055" lon="1.45248">
        <ele>1366.17</ele>
        <time>2021-03-30T12:11:39Z</time>
      </trkpt>
      <trkpt lat="42.84028" lon="1.45287">
        <ele>1359.92</ele>
        <time>2021-03-30T12:12:09Z</time>
      </trkpt>
      <trkpt lat="42.84015" lon="1.45304">
        <ele>1354.63</ele>
        <time>2021-03-30T12:12:39Z</time>
      </trkpt>
      <trkpt lat="42.84005" lon="1.45319">
        <ele>1351.27</ele>
        <time>2021-03-30T12:13:09Z</time>
      </trkpt>
      <trkpt lat="42.83992" lon="1.45349">
        <ele>1347.91</ele>
        <time>2021-03-30T12:13:39Z</time>
      </trkpt>
      <trkpt lat="42.83976" lon="1.45367">
        <ele>1341.18</ele>
        <time>2021-03-30T12:14:09Z</time>
      </trkpt>
      <trkpt lat="42.83962" lon="1.45399">
        <ele>1334.45</ele>
        <time>2021-03-30T12:14:39Z</time>
      </trkpt>
      <trkpt lat="42.83947" lon="1.45419">
        <ele>1329.64</ele>
        <time>2021-03-30T12:15:09Z</time>
      </trkpt>
      <trkpt lat="42.83952" lon="1.4542">
        <ele>1329.64</ele>
        <time>2021-03-30T12:15:39Z</time>
      </trkpt>
      <trkpt lat="42.83951" lon="1.45438">
        <ele>1323.87</ele>
        <time>2021-03-30T12:16:09Z</time>
      </trkpt>
      <trkpt lat="42.83946" lon="1.45456">
        <ele>1314.26</ele>
        <time>2021-03-30T12:16:39Z</time>
      </trkpt>
      <trkpt lat="42.83939" lon="1.45488">
        <ele>1308.01</ele>
        <time>2021-03-30T12:17:09Z</time>
      </trkpt>
      <trkpt lat="42.83926" lon="1.45511">
        <ele>1301.76</ele>
        <time>2021-03-30T12:17:39Z</time>
      </trkpt>
      <trkpt lat="42.83917" lon="1.4553">
        <ele>1293.59</ele>
        <time>2021-03-30T12:18:09Z</time>
      </trkpt>
      <trkpt lat="42.8391" lon="1.45557">
        <ele>1286.86</ele>
        <time>2021-03-30T12:18:39Z</time>
      </trkpt>
      <trkpt lat="42.83906" lon="1.45592">
        <ele>1280.13</ele>
        <time>2021-03-30T12:19:09Z</time>
      </trkpt>
      <trkpt lat="42.83904" lon="1.45624">
        <ele>1272.44</ele>
        <time>2021-03-30T12:19:39Z</time>
      </trkpt>
      <trkpt lat="42.83899" lon="1.45663">
        <ele>1264.27</ele>
        <time>2021-03-30T12:20:09Z</time>
      </trkpt>
      <trkpt lat="42.83894" lon="1.45696">
        <ele>1257.06</ele>
        <time>2021-03-30T12:20:39Z</time>
      </trkpt>
      <trkpt lat="42.83893" lon="1.45735">
        <ele>1250.33</ele>
        <time>2021-03-30T12:21:09Z</time>
      </trkpt>
      <trkpt lat="42.83896" lon="1.45763">
        <ele>1244.08</ele>
        <time>2021-03-30T12:21:39Z</time>
      </trkpt>
      <trkpt lat="42.839" lon="1.45782">
        <ele>1237.83</ele>
        <time>2021-03-30T12:22:09Z</time>
      </trkpt>
      <trkpt lat="42.83903" lon="1.45812">
        <ele>1230.62</ele>
        <time>2021-03-30T12:22:39Z</time>
      </trkpt>
      <trkpt lat="42.83906" lon="1.45845">
        <ele>1225.34</ele>
        <time>2021-03-30T12:23:09Z</time>
      </trkpt>
      <trkpt lat="42.8391" lon="1.45894">
        <ele>1219.09</ele>
        <time>2021-03-30T12:23:39Z</time>
      </trkpt>
      <trkpt lat="42.83912" lon="1.45942">
        <ele>1216.21</ele>
        <time>2021-03-30T12:24:09Z</time>
      </trkpt>
      <trkpt lat="42.8391" lon="1.45992">
        <ele>1213.8</ele>
        <time>2021-03-30T12:24:39Z</time>
      </trkpt>
      <trkpt lat="42.83893" lon="1.46018">
        <ele>1210.44</ele>
        <time>2021-03-30T12:25:09Z</time>
      </trkpt>
      <trkpt lat="42.83892" lon="1.46068">
        <ele>1208.51</ele>
        <time>2021-03-30T12:25:39Z</time>
      </trkpt>
      <trkpt lat="42.83894" lon="1.46118">
        <ele>1204.67</ele>
        <time>2021-03-30T12:26:09Z</time>
      </trkpt>
      <trkpt lat="42.83886" lon="1.46162">
        <ele>1202.75</ele>
        <time>2021-03-30T12:26:39Z</time>
      </trkpt>
      <trkpt lat="42.83875" lon="1.46205">
        <ele>1199.86</ele>
        <time>2021-03-30T12:27:09Z</time>
      </trkpt>
      <trkpt lat="42.83888" lon="1.46228">
        <ele>1197.46</ele>
        <time>2021-03-30T12:27:39Z</time>
      </trkpt>
      <trkpt lat="42.8389" lon="1.46265">
        <ele>1196.5</ele>
        <time>2021-03-30T12:28:09Z</time>
      </trkpt>
      <trkpt lat="42.83896" lon="1.46312">
        <ele>1195.54</ele>
        <time>2021-03-30T12:28:39Z</time>
      </trkpt>
      <trkpt lat="42.83896" lon="1.46346">
        <ele>1194.58</ele>
        <time>2021-03-30T12:29:09Z</time>
      </trkpt>
      <trkpt lat="42.83897" lon="1.46394">
        <ele>1193.13</ele>
        <time>2021-03-30T12:29:39Z</time>
      </trkpt>
      <trkpt lat="42.83886" lon="1.46443">
        <ele>1190.73</ele>
        <time>2021-03-30T12:30:09Z</time>
      </trkpt>
      <trkpt lat="42.83894" lon="1.46488">
        <ele>1188.33</ele>
        <time>2021-03-30T12:30:39Z</time>
      </trkpt>
      <trkpt lat="42.83899" lon="1.46537">
        <ele>1187.85</ele>
        <time>2021-03-30T12:31:09Z</time>
      </trkpt>
      <trkpt lat="42.83903" lon="1.46565">
        <ele>1185.44</ele>
        <time>2021-03-30T12:31:39Z</time>
      </trkpt>
      <trkpt lat="42.83919" lon="1.46605">
        <ele>1182.08</ele>
        <time>2021-03-30T12:32:09Z</time>
      </trkpt>
      <trkpt lat="42.8391" lon="1.46657">
        <ele>1176.79</ele>
        <time>2021-03-30T12:32:39Z</time>
      </trkpt>
      <trkpt lat="42.83909" lon="1.46701">
        <ele>1172.47</ele>
        <time>2021-03-30T12:33:09Z</time>
      </trkpt>
      <trkpt lat="42.83899" lon="1.46745">
        <ele>1168.62</ele>
        <time>2021-03-30T12:33:39Z</time>
      </trkpt>
      <trkpt lat="42.83892" lon="1.46793">
        <ele>1163.81</ele>
        <time>2021-03-30T12:34:09Z</time>
      </trkpt>
      <trkpt lat="42.83884" lon="1.4683">
        <ele>1159.01</ele>
        <time>2021-03-30T12:34:39Z</time>
      </trkpt>
      <trkpt lat="42.83879" lon="1.46878">
        <ele>1154.2</ele>
        <time>2021-03-30T12:35:09Z</time>
      </trkpt>
      <trkpt lat="42.83877" lon="1.46917">
        <ele>1151.32</ele>
        <time>2021-03-30T12:35:39Z</time>
      </trkpt>
      <trkpt lat="42.83883" lon="1.46959">
        <ele>1147.95</ele>
        <time>2021-03-30T12:36:09Z</time>
      </trkpt>
      <trkpt lat="42.83886" lon="1.47003">
        <ele>1141.22</ele>
        <time>2021-03-30T12:36:39Z</time>
      </trkpt>
      <trkpt lat="42.83879" lon="1.47042">
        <ele>1136.9</ele>
        <time>2021-03-30T12:37:09Z</time>
      </trkpt>
      <trkpt lat="42.83872" lon="1.4708">
        <ele>1130.65</ele>
        <time>2021-03-30T12:37:39Z</time>
      </trkpt>
      <trkpt lat="42.83872" lon="1.47129">
        <ele>1124.88</ele>
        <time>2021-03-30T12:38:09Z</time>
      </trkpt>
      <trkpt lat="42.83883" lon="1.47164">
        <ele>1121.52</ele>
        <time>2021-03-30T12:38:39Z</time>
      </trkpt>
      <trkpt lat="42.83864" lon="1.47222">
        <ele>1116.23</ele>
        <time>2021-03-30T12:39:09Z</time>
      </trkpt>
      <trkpt lat="42.83855" lon="1.47273">
        <ele>1113.82</ele>
        <time>2021-03-30T12:39:39Z</time>
      </trkpt>
      <trkpt lat="42.83849" lon="1.47312">
        <ele>1111.9</ele>
        <time>2021-03-30T12:40:09Z</time>
      </trkpt>
      <trkpt lat="42.83855" lon="1.47349">
        <ele>1109.02</ele>
        <time>2021-03-30T12:40:39Z</time>
      </trkpt>
      <trkpt lat="42.8387" lon="1.47395">
        <ele>1104.69</ele>
        <time>2021-03-30T12:41:09Z</time>
      </trkpt>
      <trkpt lat="42.83872" lon="1.47441">
        <ele>1098.44</ele>
        <time>2021-03-30T12:41:39Z</time>
      </trkpt>
      <trkpt lat="42.83873" lon="1.4748">
        <ele>1092.68</ele>
        <time>2021-03-30T12:42:09Z</time>
      </trkpt>
      <trkpt lat="42.83875" lon="1.47521">
        <ele>1087.87</ele>
        <time>2021-03-30T12:42:39Z</time>
      </trkpt>
      <trkpt lat="42.8388" lon="1.4757">
        <ele>1082.58</ele>
        <time>2021-03-30T12:43:09Z</time>
      </trkpt>
      <trkpt lat="42.83898" lon="1.47616">
        <ele>1079.7</ele>
        <time>2021-03-30T12:43:39Z</time>
      </trkpt>
      <trkpt lat="42.839" lon="1.47664">
        <ele>1079.7</ele>
        <time>2021-03-30T12:44:09Z</time>
      </trkpt>
      <trkpt lat="42.83898" lon="1.47713">
        <ele>1079.7</ele>
        <time>2021-03-30T12:44:39Z</time>
      </trkpt>
      <trkpt lat="42.83891" lon="1.47757">
        <ele>1079.7</ele>
        <time>2021-03-30T12:45:09Z</time>
      </trkpt>
      <trkpt lat="42.83897" lon="1.47802">
        <ele>1077.78</ele>
        <time>2021-03-30T12:45:39Z</time>
      </trkpt>
      <trkpt lat="42.83915" lon="1.47842">
        <ele>1074.41</ele>
        <time>2021-03-30T12:46:08Z</time>
      </trkpt>
    </trkseg>
  </trk>
</gpx>